<?xml version="1.0" encoding="UTF-8" standalone="no" ?>
<gpx xmlns="http://www.topografix.com/GPX/1/1" xmlns:xsi="http://www.w3.org/2001/XMLSchema-instance" xsi:schemaLocation="http://www.topografix.com/GPX/1/1 http://www.topografix.com/GPX/1/1/gpx.xsd" version="1.1" creator="VisuGPX - https://www.visugpx.com">
  <metadata>
    <name>07/08/2013</name>
    <desc><![CDATA[07/08/2013]]></desc>
  </metadata>
  <wpt lat="48.72374" lon="2.09903">
    <ele>159.5</ele>
    <name><![CDATA[Start]]></name>
    <desc><![CDATA[2013-08-07 04:50:35]]></desc>
  </wpt>
  <wpt lat="48.7626" lon="2.08361">
    <ele>159</ele>
    <name><![CDATA[Lap 1]]></name>
    <desc><![CDATA[8.32km, 27:05, 18.4kph]]></desc>
  </wpt>
  <wpt lat="48.72368" lon="2.09903">
    <ele>159.8</ele>
    <name><![CDATA[Lap 2]]></name>
    <desc><![CDATA[10.23km, 34:23, 17.9kph]]></desc>
  </wpt>
  <trk>
    <name><![CDATA[2013-08-07-04-50-35]]></name>
    <desc><![CDATA[61:28 - 18.5km]]></desc>
    <trkseg>
      <trkpt lat="48.72374" lon="2.09903">
        <ele>166.673</ele>
        <time>2013-08-07T04:50:36Z</time>
      </trkpt>
      <trkpt lat="48.72374" lon="2.09903">
        <ele>166.673</ele>
        <time>2013-08-07T04:50:37Z</time>
      </trkpt>
      <trkpt lat="48.72372" lon="2.09898">
        <ele>167.719</ele>
        <time>2013-08-07T04:50:40Z</time>
      </trkpt>
      <trkpt lat="48.72375" lon="2.09877">
        <ele>166.465</ele>
        <time>2013-08-07T04:50:46Z</time>
      </trkpt>
      <trkpt lat="48.72383" lon="2.09843">
        <ele>166.566</ele>
        <time>2013-08-07T04:50:52Z</time>
      </trkpt>
      <trkpt lat="48.72391" lon="2.09793">
        <ele>166.083</ele>
        <time>2013-08-07T04:51:00Z</time>
      </trkpt>
      <trkpt lat="48.72402" lon="2.09724">
        <ele>165.714</ele>
        <time>2013-08-07T04:51:10Z</time>
      </trkpt>
      <trkpt lat="48.72402" lon="2.09653">
        <ele>165.083</ele>
        <time>2013-08-07T04:51:20Z</time>
      </trkpt>
      <trkpt lat="48.72402" lon="2.09616">
        <ele>164.964</ele>
        <time>2013-08-07T04:51:25Z</time>
      </trkpt>
      <trkpt lat="48.72398" lon="2.09543">
        <ele>164.893</ele>
        <time>2013-08-07T04:51:34Z</time>
      </trkpt>
      <trkpt lat="48.72396" lon="2.09481">
        <ele>165.131</ele>
        <time>2013-08-07T04:51:42Z</time>
      </trkpt>
      <trkpt lat="48.72388" lon="2.09453">
        <ele>165.405</ele>
        <time>2013-08-07T04:51:46Z</time>
      </trkpt>
      <trkpt lat="48.72385" lon="2.09448">
        <ele>165.462</ele>
        <time>2013-08-07T04:51:47Z</time>
      </trkpt>
      <trkpt lat="48.72349" lon="2.0941">
        <ele>166.914</ele>
        <time>2013-08-07T04:51:56Z</time>
      </trkpt>
      <trkpt lat="48.72311" lon="2.09372">
        <ele>168.098</ele>
        <time>2013-08-07T04:52:06Z</time>
      </trkpt>
      <trkpt lat="48.72292" lon="2.09354">
        <ele>168.664</ele>
        <time>2013-08-07T04:52:11Z</time>
      </trkpt>
      <trkpt lat="48.72291" lon="2.09332">
        <ele>168.971</ele>
        <time>2013-08-07T04:52:15Z</time>
      </trkpt>
      <trkpt lat="48.72315" lon="2.09281">
        <ele>169.125</ele>
        <time>2013-08-07T04:52:24Z</time>
      </trkpt>
      <trkpt lat="48.72338" lon="2.09237">
        <ele>169.469</ele>
        <time>2013-08-07T04:52:32Z</time>
      </trkpt>
      <trkpt lat="48.72355" lon="2.09203">
        <ele>169.518</ele>
        <time>2013-08-07T04:52:38Z</time>
      </trkpt>
      <trkpt lat="48.7237" lon="2.09188">
        <ele>169.569</ele>
        <time>2013-08-07T04:52:42Z</time>
      </trkpt>
      <trkpt lat="48.72375" lon="2.09187">
        <ele>169.558</ele>
        <time>2013-08-07T04:52:43Z</time>
      </trkpt>
      <trkpt lat="48.72416" lon="2.09181">
        <ele>169.39</ele>
        <time>2013-08-07T04:52:51Z</time>
      </trkpt>
      <trkpt lat="48.7242" lon="2.0918">
        <ele>169.175</ele>
        <time>2013-08-07T04:52:54Z</time>
      </trkpt>
      <trkpt lat="48.72429" lon="2.09195">
        <ele>168.76</ele>
        <time>2013-08-07T04:52:58Z</time>
      </trkpt>
      <trkpt lat="48.72441" lon="2.09258">
        <ele>167.886</ele>
        <time>2013-08-07T04:53:07Z</time>
      </trkpt>
      <trkpt lat="48.72452" lon="2.09324">
        <ele>166.755</ele>
        <time>2013-08-07T04:53:15Z</time>
      </trkpt>
      <trkpt lat="48.72457" lon="2.09352">
        <ele>166.05</ele>
        <time>2013-08-07T04:53:18Z</time>
      </trkpt>
      <trkpt lat="48.72465" lon="2.09405">
        <ele>164.305</ele>
        <time>2013-08-07T04:53:23Z</time>
      </trkpt>
      <trkpt lat="48.72475" lon="2.09438">
        <ele>162.692</ele>
        <time>2013-08-07T04:53:26Z</time>
      </trkpt>
      <trkpt lat="48.72497" lon="2.09471">
        <ele>160.342</ele>
        <time>2013-08-07T04:53:30Z</time>
      </trkpt>
      <trkpt lat="48.7251" lon="2.09483">
        <ele>159.286</ele>
        <time>2013-08-07T04:53:32Z</time>
      </trkpt>
      <trkpt lat="48.72524" lon="2.09489">
        <ele>158.138</ele>
        <time>2013-08-07T04:53:34Z</time>
      </trkpt>
      <trkpt lat="48.72564" lon="2.09488">
        <ele>156.4</ele>
        <time>2013-08-07T04:53:38Z</time>
      </trkpt>
      <trkpt lat="48.72603" lon="2.095">
        <ele>153.771</ele>
        <time>2013-08-07T04:53:42Z</time>
      </trkpt>
      <trkpt lat="48.72659" lon="2.09516">
        <ele>149.414</ele>
        <time>2013-08-07T04:53:48Z</time>
      </trkpt>
      <trkpt lat="48.7267" lon="2.09515">
        <ele>148.755</ele>
        <time>2013-08-07T04:53:49Z</time>
      </trkpt>
      <trkpt lat="48.72725" lon="2.09483">
        <ele>146.401</ele>
        <time>2013-08-07T04:53:55Z</time>
      </trkpt>
      <trkpt lat="48.7274" lon="2.09466">
        <ele>146.476</ele>
        <time>2013-08-07T04:53:57Z</time>
      </trkpt>
      <trkpt lat="48.72788" lon="2.09398">
        <ele>147.389</ele>
        <time>2013-08-07T04:54:03Z</time>
      </trkpt>
      <trkpt lat="48.72815" lon="2.09369">
        <ele>147.663</ele>
        <time>2013-08-07T04:54:06Z</time>
      </trkpt>
      <trkpt lat="48.72857" lon="2.09349">
        <ele>147.959</ele>
        <time>2013-08-07T04:54:10Z</time>
      </trkpt>
      <trkpt lat="48.72876" lon="2.09355">
        <ele>148.278</ele>
        <time>2013-08-07T04:54:12Z</time>
      </trkpt>
      <trkpt lat="48.729" lon="2.09367">
        <ele>148.67</ele>
        <time>2013-08-07T04:54:15Z</time>
      </trkpt>
      <trkpt lat="48.72942" lon="2.09361">
        <ele>149.387</ele>
        <time>2013-08-07T04:54:19Z</time>
      </trkpt>
      <trkpt lat="48.72951" lon="2.09355">
        <ele>149.505</ele>
        <time>2013-08-07T04:54:20Z</time>
      </trkpt>
      <trkpt lat="48.72969" lon="2.09341">
        <ele>149.849</ele>
        <time>2013-08-07T04:54:22Z</time>
      </trkpt>
      <trkpt lat="48.73011" lon="2.09288">
        <ele>150.73</ele>
        <time>2013-08-07T04:54:27Z</time>
      </trkpt>
      <trkpt lat="48.73056" lon="2.09238">
        <ele>151.57</ele>
        <time>2013-08-07T04:54:32Z</time>
      </trkpt>
      <trkpt lat="48.73071" lon="2.09225">
        <ele>151.875</ele>
        <time>2013-08-07T04:54:34Z</time>
      </trkpt>
      <trkpt lat="48.73099" lon="2.09206">
        <ele>152.864</ele>
        <time>2013-08-07T04:54:39Z</time>
      </trkpt>
      <trkpt lat="48.73112" lon="2.09198">
        <ele>153.482</ele>
        <time>2013-08-07T04:54:43Z</time>
      </trkpt>
      <trkpt lat="48.73116" lon="2.09198">
        <ele>153.91</ele>
        <time>2013-08-07T04:54:46Z</time>
      </trkpt>
      <trkpt lat="48.73125" lon="2.09197">
        <ele>154.528</ele>
        <time>2013-08-07T04:54:50Z</time>
      </trkpt>
      <trkpt lat="48.73141" lon="2.09185">
        <ele>154.775</ele>
        <time>2013-08-07T04:54:54Z</time>
      </trkpt>
      <trkpt lat="48.73154" lon="2.09172">
        <ele>155.088</ele>
        <time>2013-08-07T04:54:57Z</time>
      </trkpt>
      <trkpt lat="48.73155" lon="2.09157">
        <ele>155.162</ele>
        <time>2013-08-07T04:54:59Z</time>
      </trkpt>
      <trkpt lat="48.73153" lon="2.09121">
        <ele>155.6</ele>
        <time>2013-08-07T04:55:04Z</time>
      </trkpt>
      <trkpt lat="48.73161" lon="2.09105">
        <ele>156.137</ele>
        <time>2013-08-07T04:55:08Z</time>
      </trkpt>
      <trkpt lat="48.73169" lon="2.09107">
        <ele>156.491</ele>
        <time>2013-08-07T04:55:10Z</time>
      </trkpt>
      <trkpt lat="48.73207" lon="2.09117">
        <ele>157.539</ele>
        <time>2013-08-07T04:55:18Z</time>
      </trkpt>
      <trkpt lat="48.73248" lon="2.0913">
        <ele>159.308</ele>
        <time>2013-08-07T04:55:27Z</time>
      </trkpt>
      <trkpt lat="48.73261" lon="2.09136">
        <ele>159.871</ele>
        <time>2013-08-07T04:55:30Z</time>
      </trkpt>
      <trkpt lat="48.73274" lon="2.09148">
        <ele>160.602</ele>
        <time>2013-08-07T04:55:34Z</time>
      </trkpt>
      <trkpt lat="48.7329" lon="2.09171">
        <ele>161.725</ele>
        <time>2013-08-07T04:55:41Z</time>
      </trkpt>
      <trkpt lat="48.733" lon="2.09181">
        <ele>162.367</ele>
        <time>2013-08-07T04:55:46Z</time>
      </trkpt>
      <trkpt lat="48.73305" lon="2.09188">
        <ele>162.894</ele>
        <time>2013-08-07T04:55:50Z</time>
      </trkpt>
      <trkpt lat="48.73314" lon="2.09192">
        <ele>163.712</ele>
        <time>2013-08-07T04:55:55Z</time>
      </trkpt>
      <trkpt lat="48.73322" lon="2.09191">
        <ele>164.35</ele>
        <time>2013-08-07T04:56:00Z</time>
      </trkpt>
      <trkpt lat="48.73332" lon="2.09192">
        <ele>165.187</ele>
        <time>2013-08-07T04:56:06Z</time>
      </trkpt>
      <trkpt lat="48.73347" lon="2.09198">
        <ele>166.091</ele>
        <time>2013-08-07T04:56:14Z</time>
      </trkpt>
      <trkpt lat="48.73348" lon="2.09197">
        <ele>166.195</ele>
        <time>2013-08-07T04:56:15Z</time>
      </trkpt>
      <trkpt lat="48.73349" lon="2.09186">
        <ele>166.816</ele>
        <time>2013-08-07T04:56:21Z</time>
      </trkpt>
      <trkpt lat="48.73341" lon="2.0917">
        <ele>167.23</ele>
        <time>2013-08-07T04:56:30Z</time>
      </trkpt>
      <trkpt lat="48.73335" lon="2.09156">
        <ele>167.641</ele>
        <time>2013-08-07T04:56:38Z</time>
      </trkpt>
      <trkpt lat="48.73334" lon="2.09135">
        <ele>168.49</ele>
        <time>2013-08-07T04:56:47Z</time>
      </trkpt>
      <trkpt lat="48.73341" lon="2.09118">
        <ele>169.721</ele>
        <time>2013-08-07T04:56:56Z</time>
      </trkpt>
      <trkpt lat="48.73348" lon="2.09108">
        <ele>170.624</ele>
        <time>2013-08-07T04:57:03Z</time>
      </trkpt>
      <trkpt lat="48.73357" lon="2.09103">
        <ele>171.659</ele>
        <time>2013-08-07T04:57:11Z</time>
      </trkpt>
      <trkpt lat="48.73369" lon="2.09107">
        <ele>172.764</ele>
        <time>2013-08-07T04:57:20Z</time>
      </trkpt>
      <trkpt lat="48.73384" lon="2.09116">
        <ele>173.521</ele>
        <time>2013-08-07T04:57:31Z</time>
      </trkpt>
      <trkpt lat="48.73394" lon="2.09127">
        <ele>174.312</ele>
        <time>2013-08-07T04:57:40Z</time>
      </trkpt>
      <trkpt lat="48.73402" lon="2.09136">
        <ele>174.663</ele>
        <time>2013-08-07T04:57:48Z</time>
      </trkpt>
      <trkpt lat="48.73409" lon="2.09139">
        <ele>174.892</ele>
        <time>2013-08-07T04:57:54Z</time>
      </trkpt>
      <trkpt lat="48.73417" lon="2.09142">
        <ele>175.534</ele>
        <time>2013-08-07T04:58:01Z</time>
      </trkpt>
      <trkpt lat="48.73427" lon="2.09145">
        <ele>175.948</ele>
        <time>2013-08-07T04:58:08Z</time>
      </trkpt>
      <trkpt lat="48.73436" lon="2.0915">
        <ele>176.465</ele>
        <time>2013-08-07T04:58:15Z</time>
      </trkpt>
      <trkpt lat="48.73439" lon="2.09151">
        <ele>176.546</ele>
        <time>2013-08-07T04:58:17Z</time>
      </trkpt>
      <trkpt lat="48.73448" lon="2.09151">
        <ele>177.077</ele>
        <time>2013-08-07T04:58:24Z</time>
      </trkpt>
      <trkpt lat="48.7345" lon="2.09151">
        <ele>177.215</ele>
        <time>2013-08-07T04:58:25Z</time>
      </trkpt>
      <trkpt lat="48.7346" lon="2.09152">
        <ele>178.124</ele>
        <time>2013-08-07T04:58:32Z</time>
      </trkpt>
      <trkpt lat="48.73474" lon="2.09152">
        <ele>178.982</ele>
        <time>2013-08-07T04:58:41Z</time>
      </trkpt>
      <trkpt lat="48.73485" lon="2.09151">
        <ele>179.667</ele>
        <time>2013-08-07T04:58:49Z</time>
      </trkpt>
      <trkpt lat="48.73499" lon="2.09148">
        <ele>180.527</ele>
        <time>2013-08-07T04:58:59Z</time>
      </trkpt>
      <trkpt lat="48.7351" lon="2.09145">
        <ele>181.111</ele>
        <time>2013-08-07T04:59:08Z</time>
      </trkpt>
      <trkpt lat="48.73521" lon="2.09144">
        <ele>181.783</ele>
        <time>2013-08-07T04:59:16Z</time>
      </trkpt>
      <trkpt lat="48.73528" lon="2.0914">
        <ele>182.135</ele>
        <time>2013-08-07T04:59:21Z</time>
      </trkpt>
      <trkpt lat="48.7354" lon="2.09133">
        <ele>182.644</ele>
        <time>2013-08-07T04:59:31Z</time>
      </trkpt>
      <trkpt lat="48.73546" lon="2.0913">
        <ele>183.093</ele>
        <time>2013-08-07T04:59:37Z</time>
      </trkpt>
      <trkpt lat="48.73556" lon="2.09127">
        <ele>183.518</ele>
        <time>2013-08-07T04:59:45Z</time>
      </trkpt>
      <trkpt lat="48.73568" lon="2.09122">
        <ele>184.38</ele>
        <time>2013-08-07T04:59:54Z</time>
      </trkpt>
      <trkpt lat="48.73579" lon="2.09119">
        <ele>185.032</ele>
        <time>2013-08-07T05:00:02Z</time>
      </trkpt>
      <trkpt lat="48.73587" lon="2.09114">
        <ele>185.404</ele>
        <time>2013-08-07T05:00:10Z</time>
      </trkpt>
      <trkpt lat="48.736" lon="2.09114">
        <ele>185.946</ele>
        <time>2013-08-07T05:00:17Z</time>
      </trkpt>
      <trkpt lat="48.73614" lon="2.09116">
        <ele>186.511</ele>
        <time>2013-08-07T05:00:25Z</time>
      </trkpt>
      <trkpt lat="48.73629" lon="2.09117">
        <ele>186.894</ele>
        <time>2013-08-07T05:00:32Z</time>
      </trkpt>
      <trkpt lat="48.73638" lon="2.09108">
        <ele>187.216</ele>
        <time>2013-08-07T05:00:37Z</time>
      </trkpt>
      <trkpt lat="48.73643" lon="2.09083">
        <ele>187.886</ele>
        <time>2013-08-07T05:00:45Z</time>
      </trkpt>
      <trkpt lat="48.73644" lon="2.09053">
        <ele>188.593</ele>
        <time>2013-08-07T05:00:53Z</time>
      </trkpt>
      <trkpt lat="48.73642" lon="2.09027">
        <ele>189.279</ele>
        <time>2013-08-07T05:01:00Z</time>
      </trkpt>
      <trkpt lat="48.73639" lon="2.08989">
        <ele>189.956</ele>
        <time>2013-08-07T05:01:08Z</time>
      </trkpt>
      <trkpt lat="48.73638" lon="2.08964">
        <ele>190.098</ele>
        <time>2013-08-07T05:01:12Z</time>
      </trkpt>
      <trkpt lat="48.73641" lon="2.08945">
        <ele>190.194</ele>
        <time>2013-08-07T05:01:15Z</time>
      </trkpt>
      <trkpt lat="48.73654" lon="2.08906">
        <ele>190.761</ele>
        <time>2013-08-07T05:01:21Z</time>
      </trkpt>
      <trkpt lat="48.73667" lon="2.08873">
        <ele>190.94</ele>
        <time>2013-08-07T05:01:26Z</time>
      </trkpt>
      <trkpt lat="48.7369" lon="2.08825">
        <ele>191.632</ele>
        <time>2013-08-07T05:01:33Z</time>
      </trkpt>
      <trkpt lat="48.73725" lon="2.0877">
        <ele>192.096</ele>
        <time>2013-08-07T05:01:42Z</time>
      </trkpt>
      <trkpt lat="48.73761" lon="2.0872">
        <ele>192.323</ele>
        <time>2013-08-07T05:01:51Z</time>
      </trkpt>
      <trkpt lat="48.73775" lon="2.08706">
        <ele>192.612</ele>
        <time>2013-08-07T05:01:54Z</time>
      </trkpt>
      <trkpt lat="48.73813" lon="2.08683">
        <ele>193.417</ele>
        <time>2013-08-07T05:02:02Z</time>
      </trkpt>
      <trkpt lat="48.73851" lon="2.08676">
        <ele>194.375</ele>
        <time>2013-08-07T05:02:10Z</time>
      </trkpt>
      <trkpt lat="48.73875" lon="2.08676">
        <ele>194.882</ele>
        <time>2013-08-07T05:02:15Z</time>
      </trkpt>
      <trkpt lat="48.73911" lon="2.08683">
        <ele>195.736</ele>
        <time>2013-08-07T05:02:23Z</time>
      </trkpt>
      <trkpt lat="48.73951" lon="2.08692">
        <ele>196.122</ele>
        <time>2013-08-07T05:02:32Z</time>
      </trkpt>
      <trkpt lat="48.73955" lon="2.08693">
        <ele>196.303</ele>
        <time>2013-08-07T05:02:33Z</time>
      </trkpt>
      <trkpt lat="48.73987" lon="2.08699">
        <ele>197.016</ele>
        <time>2013-08-07T05:02:40Z</time>
      </trkpt>
      <trkpt lat="48.74022" lon="2.08706">
        <ele>197.531</ele>
        <time>2013-08-07T05:02:48Z</time>
      </trkpt>
      <trkpt lat="48.74052" lon="2.08711">
        <ele>197.903</ele>
        <time>2013-08-07T05:02:55Z</time>
      </trkpt>
      <trkpt lat="48.74083" lon="2.08703">
        <ele>198.337</ele>
        <time>2013-08-07T05:03:02Z</time>
      </trkpt>
      <trkpt lat="48.74109" lon="2.08679">
        <ele>198.829</ele>
        <time>2013-08-07T05:03:09Z</time>
      </trkpt>
      <trkpt lat="48.74139" lon="2.08645">
        <ele>199.203</ele>
        <time>2013-08-07T05:03:17Z</time>
      </trkpt>
      <trkpt lat="48.74164" lon="2.08616">
        <ele>199.516</ele>
        <time>2013-08-07T05:03:24Z</time>
      </trkpt>
      <trkpt lat="48.74191" lon="2.08585">
        <ele>199.718</ele>
        <time>2013-08-07T05:03:31Z</time>
      </trkpt>
      <trkpt lat="48.74226" lon="2.08543">
        <ele>200.366</ele>
        <time>2013-08-07T05:03:40Z</time>
      </trkpt>
      <trkpt lat="48.74272" lon="2.08488">
        <ele>200.682</ele>
        <time>2013-08-07T05:03:52Z</time>
      </trkpt>
      <trkpt lat="48.74318" lon="2.08434">
        <ele>201.186</ele>
        <time>2013-08-07T05:04:04Z</time>
      </trkpt>
      <trkpt lat="48.74349" lon="2.08397">
        <ele>201.149</ele>
        <time>2013-08-07T05:04:12Z</time>
      </trkpt>
      <trkpt lat="48.74382" lon="2.08359">
        <ele>201.7</ele>
        <time>2013-08-07T05:04:20Z</time>
      </trkpt>
      <trkpt lat="48.74422" lon="2.08318">
        <ele>202.127</ele>
        <time>2013-08-07T05:04:29Z</time>
      </trkpt>
      <trkpt lat="48.74464" lon="2.08263">
        <ele>202.736</ele>
        <time>2013-08-07T05:04:39Z</time>
      </trkpt>
      <trkpt lat="48.74486" lon="2.08233">
        <ele>202.865</ele>
        <time>2013-08-07T05:04:45Z</time>
      </trkpt>
      <trkpt lat="48.74498" lon="2.08221">
        <ele>203.161</ele>
        <time>2013-08-07T05:04:48Z</time>
      </trkpt>
      <trkpt lat="48.74533" lon="2.08198">
        <ele>203.663</ele>
        <time>2013-08-07T05:04:56Z</time>
      </trkpt>
      <trkpt lat="48.74549" lon="2.08176">
        <ele>203.694</ele>
        <time>2013-08-07T05:05:00Z</time>
      </trkpt>
      <trkpt lat="48.74574" lon="2.081">
        <ele>204.155</ele>
        <time>2013-08-07T05:05:09Z</time>
      </trkpt>
      <trkpt lat="48.74597" lon="2.08028">
        <ele>204.685</ele>
        <time>2013-08-07T05:05:17Z</time>
      </trkpt>
      <trkpt lat="48.7462" lon="2.07962">
        <ele>205.234</ele>
        <time>2013-08-07T05:05:25Z</time>
      </trkpt>
      <trkpt lat="48.74647" lon="2.07891">
        <ele>205.424</ele>
        <time>2013-08-07T05:05:34Z</time>
      </trkpt>
      <trkpt lat="48.74662" lon="2.07851">
        <ele>205.685</ele>
        <time>2013-08-07T05:05:39Z</time>
      </trkpt>
      <trkpt lat="48.74676" lon="2.07811">
        <ele>206.265</ele>
        <time>2013-08-07T05:05:44Z</time>
      </trkpt>
      <trkpt lat="48.74703" lon="2.07739">
        <ele>207.025</ele>
        <time>2013-08-07T05:05:54Z</time>
      </trkpt>
      <trkpt lat="48.74723" lon="2.07687">
        <ele>207.442</ele>
        <time>2013-08-07T05:06:02Z</time>
      </trkpt>
      <trkpt lat="48.74738" lon="2.07645">
        <ele>207.635</ele>
        <time>2013-08-07T05:06:09Z</time>
      </trkpt>
      <trkpt lat="48.74759" lon="2.07589">
        <ele>207.881</ele>
        <time>2013-08-07T05:06:18Z</time>
      </trkpt>
      <trkpt lat="48.74783" lon="2.07521">
        <ele>207.892</ele>
        <time>2013-08-07T05:06:28Z</time>
      </trkpt>
      <trkpt lat="48.74803" lon="2.07464">
        <ele>207.863</ele>
        <time>2013-08-07T05:06:36Z</time>
      </trkpt>
      <trkpt lat="48.74837" lon="2.07367">
        <ele>208.265</ele>
        <time>2013-08-07T05:06:49Z</time>
      </trkpt>
      <trkpt lat="48.74859" lon="2.07299">
        <ele>208.628</ele>
        <time>2013-08-07T05:06:58Z</time>
      </trkpt>
      <trkpt lat="48.7488" lon="2.07238">
        <ele>208.898</ele>
        <time>2013-08-07T05:07:06Z</time>
      </trkpt>
      <trkpt lat="48.74903" lon="2.07174">
        <ele>209.595</ele>
        <time>2013-08-07T05:07:15Z</time>
      </trkpt>
      <trkpt lat="48.74926" lon="2.07115">
        <ele>210.017</ele>
        <time>2013-08-07T05:07:23Z</time>
      </trkpt>
      <trkpt lat="48.7495" lon="2.07051">
        <ele>210.317</ele>
        <time>2013-08-07T05:07:32Z</time>
      </trkpt>
      <trkpt lat="48.74976" lon="2.06989">
        <ele>210.775</ele>
        <time>2013-08-07T05:07:41Z</time>
      </trkpt>
      <trkpt lat="48.75008" lon="2.06911">
        <ele>211.15</ele>
        <time>2013-08-07T05:07:52Z</time>
      </trkpt>
      <trkpt lat="48.75032" lon="2.06838">
        <ele>211.484</ele>
        <time>2013-08-07T05:08:02Z</time>
      </trkpt>
      <trkpt lat="48.75043" lon="2.06791">
        <ele>211.464</ele>
        <time>2013-08-07T05:08:09Z</time>
      </trkpt>
      <trkpt lat="48.75048" lon="2.06771">
        <ele>211.323</ele>
        <time>2013-08-07T05:08:13Z</time>
      </trkpt>
      <trkpt lat="48.75058" lon="2.06774">
        <ele>211.212</ele>
        <time>2013-08-07T05:08:17Z</time>
      </trkpt>
      <trkpt lat="48.75071" lon="2.06785">
        <ele>211.154</ele>
        <time>2013-08-07T05:08:21Z</time>
      </trkpt>
      <trkpt lat="48.75094" lon="2.06781">
        <ele>211.072</ele>
        <time>2013-08-07T05:08:26Z</time>
      </trkpt>
      <trkpt lat="48.75116" lon="2.06761">
        <ele>211.012</ele>
        <time>2013-08-07T05:08:31Z</time>
      </trkpt>
      <trkpt lat="48.75127" lon="2.06764">
        <ele>211.137</ele>
        <time>2013-08-07T05:08:33Z</time>
      </trkpt>
      <trkpt lat="48.75169" lon="2.06792">
        <ele>211.098</ele>
        <time>2013-08-07T05:08:41Z</time>
      </trkpt>
      <trkpt lat="48.75179" lon="2.06801">
        <ele>211.11</ele>
        <time>2013-08-07T05:08:43Z</time>
      </trkpt>
      <trkpt lat="48.75209" lon="2.06831">
        <ele>211.02</ele>
        <time>2013-08-07T05:08:49Z</time>
      </trkpt>
      <trkpt lat="48.75265" lon="2.06875">
        <ele>210.825</ele>
        <time>2013-08-07T05:08:59Z</time>
      </trkpt>
      <trkpt lat="48.75323" lon="2.0692">
        <ele>210.564</ele>
        <time>2013-08-07T05:09:09Z</time>
      </trkpt>
      <trkpt lat="48.75379" lon="2.06964">
        <ele>210.233</ele>
        <time>2013-08-07T05:09:19Z</time>
      </trkpt>
      <trkpt lat="48.7543" lon="2.07003">
        <ele>210.119</ele>
        <time>2013-08-07T05:09:28Z</time>
      </trkpt>
      <trkpt lat="48.75477" lon="2.0704">
        <ele>209.91</ele>
        <time>2013-08-07T05:09:37Z</time>
      </trkpt>
      <trkpt lat="48.75524" lon="2.07075">
        <ele>210.118</ele>
        <time>2013-08-07T05:09:46Z</time>
      </trkpt>
      <trkpt lat="48.75554" lon="2.07097">
        <ele>210.08</ele>
        <time>2013-08-07T05:09:52Z</time>
      </trkpt>
      <trkpt lat="48.75564" lon="2.07114">
        <ele>210.09</ele>
        <time>2013-08-07T05:09:55Z</time>
      </trkpt>
      <trkpt lat="48.75571" lon="2.07136">
        <ele>210.093</ele>
        <time>2013-08-07T05:09:58Z</time>
      </trkpt>
      <trkpt lat="48.75587" lon="2.07179">
        <ele>210.167</ele>
        <time>2013-08-07T05:10:04Z</time>
      </trkpt>
      <trkpt lat="48.75585" lon="2.07195">
        <ele>210.129</ele>
        <time>2013-08-07T05:10:06Z</time>
      </trkpt>
      <trkpt lat="48.75566" lon="2.07273">
        <ele>209.864</ele>
        <time>2013-08-07T05:10:15Z</time>
      </trkpt>
      <trkpt lat="48.75549" lon="2.07346">
        <ele>209.646</ele>
        <time>2013-08-07T05:10:23Z</time>
      </trkpt>
      <trkpt lat="48.75528" lon="2.07439">
        <ele>209.669</ele>
        <time>2013-08-07T05:10:33Z</time>
      </trkpt>
      <trkpt lat="48.75519" lon="2.07476">
        <ele>209.557</ele>
        <time>2013-08-07T05:10:37Z</time>
      </trkpt>
      <trkpt lat="48.755" lon="2.07498">
        <ele>209.484</ele>
        <time>2013-08-07T05:10:41Z</time>
      </trkpt>
      <trkpt lat="48.75486" lon="2.07511">
        <ele>209.485</ele>
        <time>2013-08-07T05:10:44Z</time>
      </trkpt>
      <trkpt lat="48.75482" lon="2.07536">
        <ele>209.475</ele>
        <time>2013-08-07T05:10:47Z</time>
      </trkpt>
      <trkpt lat="48.75492" lon="2.07555">
        <ele>209.48</ele>
        <time>2013-08-07T05:10:50Z</time>
      </trkpt>
      <trkpt lat="48.75509" lon="2.07561">
        <ele>209.442</ele>
        <time>2013-08-07T05:10:53Z</time>
      </trkpt>
      <trkpt lat="48.75525" lon="2.07571">
        <ele>209.522</ele>
        <time>2013-08-07T05:10:56Z</time>
      </trkpt>
      <trkpt lat="48.75532" lon="2.07584">
        <ele>209.549</ele>
        <time>2013-08-07T05:10:58Z</time>
      </trkpt>
      <trkpt lat="48.75563" lon="2.07651">
        <ele>209.87</ele>
        <time>2013-08-07T05:11:07Z</time>
      </trkpt>
      <trkpt lat="48.75599" lon="2.07727">
        <ele>209.775</ele>
        <time>2013-08-07T05:11:17Z</time>
      </trkpt>
      <trkpt lat="48.7563" lon="2.07789">
        <ele>210.131</ele>
        <time>2013-08-07T05:11:25Z</time>
      </trkpt>
      <trkpt lat="48.75656" lon="2.07846">
        <ele>209.881</ele>
        <time>2013-08-07T05:11:32Z</time>
      </trkpt>
      <trkpt lat="48.75674" lon="2.07885">
        <ele>209.799</ele>
        <time>2013-08-07T05:11:37Z</time>
      </trkpt>
      <trkpt lat="48.7568" lon="2.07911">
        <ele>209.73</ele>
        <time>2013-08-07T05:11:40Z</time>
      </trkpt>
      <trkpt lat="48.75695" lon="2.07939">
        <ele>209.633</ele>
        <time>2013-08-07T05:11:44Z</time>
      </trkpt>
      <trkpt lat="48.75708" lon="2.0797">
        <ele>209.389</ele>
        <time>2013-08-07T05:11:48Z</time>
      </trkpt>
      <trkpt lat="48.75712" lon="2.07987">
        <ele>209.342</ele>
        <time>2013-08-07T05:11:50Z</time>
      </trkpt>
      <trkpt lat="48.75713" lon="2.08029">
        <ele>209.248</ele>
        <time>2013-08-07T05:11:55Z</time>
      </trkpt>
      <trkpt lat="48.75709" lon="2.08066">
        <ele>209.152</ele>
        <time>2013-08-07T05:11:59Z</time>
      </trkpt>
      <trkpt lat="48.75696" lon="2.08101">
        <ele>208.951</ele>
        <time>2013-08-07T05:12:03Z</time>
      </trkpt>
      <trkpt lat="48.75691" lon="2.08108">
        <ele>208.939</ele>
        <time>2013-08-07T05:12:04Z</time>
      </trkpt>
      <trkpt lat="48.75675" lon="2.08128">
        <ele>208.818</ele>
        <time>2013-08-07T05:12:07Z</time>
      </trkpt>
      <trkpt lat="48.75634" lon="2.08154">
        <ele>209.006</ele>
        <time>2013-08-07T05:12:14Z</time>
      </trkpt>
      <trkpt lat="48.75595" lon="2.0818">
        <ele>209.32</ele>
        <time>2013-08-07T05:12:21Z</time>
      </trkpt>
      <trkpt lat="48.75568" lon="2.08216">
        <ele>209.415</ele>
        <time>2013-08-07T05:12:27Z</time>
      </trkpt>
      <trkpt lat="48.75543" lon="2.0827">
        <ele>209.322</ele>
        <time>2013-08-07T05:12:33Z</time>
      </trkpt>
      <trkpt lat="48.75532" lon="2.08321">
        <ele>209.302</ele>
        <time>2013-08-07T05:12:39Z</time>
      </trkpt>
      <trkpt lat="48.7553" lon="2.08389">
        <ele>209.361</ele>
        <time>2013-08-07T05:12:47Z</time>
      </trkpt>
      <trkpt lat="48.75529" lon="2.08439">
        <ele>209.633</ele>
        <time>2013-08-07T05:12:53Z</time>
      </trkpt>
      <trkpt lat="48.75534" lon="2.08521">
        <ele>209.622</ele>
        <time>2013-08-07T05:13:03Z</time>
      </trkpt>
      <trkpt lat="48.75543" lon="2.08578">
        <ele>209.414</ele>
        <time>2013-08-07T05:13:11Z</time>
      </trkpt>
      <trkpt lat="48.75558" lon="2.08633">
        <ele>209.229</ele>
        <time>2013-08-07T05:13:19Z</time>
      </trkpt>
      <trkpt lat="48.75584" lon="2.08687">
        <ele>208.848</ele>
        <time>2013-08-07T05:13:27Z</time>
      </trkpt>
      <trkpt lat="48.75619" lon="2.08731">
        <ele>208.775</ele>
        <time>2013-08-07T05:13:34Z</time>
      </trkpt>
      <trkpt lat="48.75657" lon="2.08761">
        <ele>209.031</ele>
        <time>2013-08-07T05:13:40Z</time>
      </trkpt>
      <trkpt lat="48.75687" lon="2.08775">
        <ele>209.087</ele>
        <time>2013-08-07T05:13:44Z</time>
      </trkpt>
      <trkpt lat="48.75726" lon="2.08792">
        <ele>209.082</ele>
        <time>2013-08-07T05:13:49Z</time>
      </trkpt>
      <trkpt lat="48.75777" lon="2.08815">
        <ele>209.17</ele>
        <time>2013-08-07T05:13:56Z</time>
      </trkpt>
      <trkpt lat="48.75836" lon="2.08841">
        <ele>209.852</ele>
        <time>2013-08-07T05:14:05Z</time>
      </trkpt>
      <trkpt lat="48.75904" lon="2.08871">
        <ele>210.409</ele>
        <time>2013-08-07T05:14:16Z</time>
      </trkpt>
      <trkpt lat="48.75957" lon="2.08895">
        <ele>211.269</ele>
        <time>2013-08-07T05:14:25Z</time>
      </trkpt>
      <trkpt lat="48.75999" lon="2.08911">
        <ele>211.824</ele>
        <time>2013-08-07T05:14:32Z</time>
      </trkpt>
      <trkpt lat="48.76005" lon="2.08913">
        <ele>211.874</ele>
        <time>2013-08-07T05:14:33Z</time>
      </trkpt>
      <trkpt lat="48.76061" lon="2.08939">
        <ele>211.797</ele>
        <time>2013-08-07T05:14:43Z</time>
      </trkpt>
      <trkpt lat="48.76107" lon="2.08954">
        <ele>211.816</ele>
        <time>2013-08-07T05:14:51Z</time>
      </trkpt>
      <trkpt lat="48.76113" lon="2.08954">
        <ele>211.797</ele>
        <time>2013-08-07T05:14:52Z</time>
      </trkpt>
      <trkpt lat="48.76141" lon="2.08944">
        <ele>211.744</ele>
        <time>2013-08-07T05:14:57Z</time>
      </trkpt>
      <trkpt lat="48.76174" lon="2.08914">
        <ele>211.44</ele>
        <time>2013-08-07T05:15:04Z</time>
      </trkpt>
      <trkpt lat="48.76178" lon="2.08909">
        <ele>211.352</ele>
        <time>2013-08-07T05:15:05Z</time>
      </trkpt>
      <trkpt lat="48.76185" lon="2.0889">
        <ele>211.375</ele>
        <time>2013-08-07T05:15:08Z</time>
      </trkpt>
      <trkpt lat="48.76182" lon="2.08872">
        <ele>211.268</ele>
        <time>2013-08-07T05:15:11Z</time>
      </trkpt>
      <trkpt lat="48.76184" lon="2.0884">
        <ele>211.215</ele>
        <time>2013-08-07T05:15:17Z</time>
      </trkpt>
      <trkpt lat="48.76191" lon="2.08827">
        <ele>211.195</ele>
        <time>2013-08-07T05:15:21Z</time>
      </trkpt>
      <trkpt lat="48.76196" lon="2.08808">
        <ele>211.224</ele>
        <time>2013-08-07T05:15:25Z</time>
      </trkpt>
      <trkpt lat="48.76191" lon="2.08792">
        <ele>211.306</ele>
        <time>2013-08-07T05:15:28Z</time>
      </trkpt>
      <trkpt lat="48.76188" lon="2.08787">
        <ele>211.279</ele>
        <time>2013-08-07T05:15:29Z</time>
      </trkpt>
      <trkpt lat="48.76178" lon="2.0877">
        <ele>211.308</ele>
        <time>2013-08-07T05:15:32Z</time>
      </trkpt>
      <trkpt lat="48.76157" lon="2.08727">
        <ele>211.28</ele>
        <time>2013-08-07T05:15:39Z</time>
      </trkpt>
      <trkpt lat="48.76138" lon="2.08696">
        <ele>210.979</ele>
        <time>2013-08-07T05:15:45Z</time>
      </trkpt>
      <trkpt lat="48.76145" lon="2.08677">
        <ele>210.871</ele>
        <time>2013-08-07T05:15:49Z</time>
      </trkpt>
      <trkpt lat="48.76162" lon="2.08659">
        <ele>210.738</ele>
        <time>2013-08-07T05:15:53Z</time>
      </trkpt>
      <trkpt lat="48.76171" lon="2.08647">
        <ele>210.678</ele>
        <time>2013-08-07T05:15:55Z</time>
      </trkpt>
      <trkpt lat="48.76212" lon="2.08595">
        <ele>210.787</ele>
        <time>2013-08-07T05:16:04Z</time>
      </trkpt>
      <trkpt lat="48.76246" lon="2.08553">
        <ele>210.715</ele>
        <time>2013-08-07T05:16:12Z</time>
      </trkpt>
      <trkpt lat="48.76253" lon="2.08545">
        <ele>210.792</ele>
        <time>2013-08-07T05:16:14Z</time>
      </trkpt>
      <trkpt lat="48.76254" lon="2.08532">
        <ele>210.892</ele>
        <time>2013-08-07T05:16:18Z</time>
      </trkpt>
      <trkpt lat="48.76243" lon="2.08511">
        <ele>210.974</ele>
        <time>2013-08-07T05:16:23Z</time>
      </trkpt>
      <trkpt lat="48.76224" lon="2.0848">
        <ele>210.776</ele>
        <time>2013-08-07T05:16:29Z</time>
      </trkpt>
      <trkpt lat="48.76213" lon="2.0846">
        <ele>210.595</ele>
        <time>2013-08-07T05:16:33Z</time>
      </trkpt>
      <trkpt lat="48.76202" lon="2.0844">
        <ele>210.341</ele>
        <time>2013-08-07T05:16:38Z</time>
      </trkpt>
      <trkpt lat="48.76202" lon="2.08432">
        <ele>210.277</ele>
        <time>2013-08-07T05:16:41Z</time>
      </trkpt>
      <trkpt lat="48.76206" lon="2.08425">
        <ele>210.201</ele>
        <time>2013-08-07T05:16:45Z</time>
      </trkpt>
      <trkpt lat="48.76219" lon="2.08407">
        <ele>210.173</ele>
        <time>2013-08-07T05:16:50Z</time>
      </trkpt>
      <trkpt lat="48.76223" lon="2.08403">
        <ele>210.167</ele>
        <time>2013-08-07T05:16:51Z</time>
      </trkpt>
      <trkpt lat="48.76243" lon="2.08379">
        <ele>209.938</ele>
        <time>2013-08-07T05:16:57Z</time>
      </trkpt>
      <trkpt lat="48.76256" lon="2.08363">
        <ele>209.846</ele>
        <time>2013-08-07T05:17:02Z</time>
      </trkpt>
      <trkpt lat="48.76259" lon="2.08355">
        <ele>209.772</ele>
        <time>2013-08-07T05:17:06Z</time>
      </trkpt>
      <trkpt lat="48.7626" lon="2.08354">
        <ele>209.747</ele>
        <time>2013-08-07T05:17:10Z</time>
      </trkpt>
      <trkpt lat="48.76261" lon="2.08357">
        <ele>209.738</ele>
        <time>2013-08-07T05:17:14Z</time>
      </trkpt>
      <trkpt lat="48.76263" lon="2.08359">
        <ele>208.843</ele>
        <time>2013-08-07T05:17:33Z</time>
      </trkpt>
      <trkpt lat="48.7626" lon="2.08361">
        <ele>208.416</ele>
        <time>2013-08-07T05:17:40Z</time>
      </trkpt>
      <trkpt lat="48.76264" lon="2.0836">
        <ele>146.863</ele>
        <time>2013-08-07T14:41:39Z</time>
      </trkpt>
      <trkpt lat="48.76264" lon="2.0836">
        <ele>147.017</ele>
        <time>2013-08-07T14:41:40Z</time>
      </trkpt>
      <trkpt lat="48.76263" lon="2.08361">
        <ele>147.399</ele>
        <time>2013-08-07T14:41:42Z</time>
      </trkpt>
      <trkpt lat="48.76262" lon="2.08364">
        <ele>147.738</ele>
        <time>2013-08-07T14:41:49Z</time>
      </trkpt>
      <trkpt lat="48.76258" lon="2.08369">
        <ele>147.289</ele>
        <time>2013-08-07T14:41:53Z</time>
      </trkpt>
      <trkpt lat="48.7625" lon="2.08381">
        <ele>147.308</ele>
        <time>2013-08-07T14:41:58Z</time>
      </trkpt>
      <trkpt lat="48.76232" lon="2.08399">
        <ele>147.421</ele>
        <time>2013-08-07T14:42:05Z</time>
      </trkpt>
      <trkpt lat="48.76209" lon="2.08428">
        <ele>147.336</ele>
        <time>2013-08-07T14:42:14Z</time>
      </trkpt>
      <trkpt lat="48.76207" lon="2.0843">
        <ele>147.329</ele>
        <time>2013-08-07T14:42:15Z</time>
      </trkpt>
      <trkpt lat="48.76201" lon="2.08436">
        <ele>147.417</ele>
        <time>2013-08-07T14:42:20Z</time>
      </trkpt>
      <trkpt lat="48.76202" lon="2.08438">
        <ele>147.406</ele>
        <time>2013-08-07T14:42:21Z</time>
      </trkpt>
      <trkpt lat="48.76216" lon="2.08469">
        <ele>147.322</ele>
        <time>2013-08-07T14:42:29Z</time>
      </trkpt>
      <trkpt lat="48.76233" lon="2.085">
        <ele>147.235</ele>
        <time>2013-08-07T14:42:36Z</time>
      </trkpt>
      <trkpt lat="48.76248" lon="2.0853">
        <ele>147.188</ele>
        <time>2013-08-07T14:42:43Z</time>
      </trkpt>
      <trkpt lat="48.76254" lon="2.08541">
        <ele>147.184</ele>
        <time>2013-08-07T14:42:46Z</time>
      </trkpt>
      <trkpt lat="48.7625" lon="2.08556">
        <ele>147.442</ele>
        <time>2013-08-07T14:42:50Z</time>
      </trkpt>
      <trkpt lat="48.7623" lon="2.0858">
        <ele>147.601</ele>
        <time>2013-08-07T14:42:57Z</time>
      </trkpt>
      <trkpt lat="48.76209" lon="2.08603">
        <ele>147.598</ele>
        <time>2013-08-07T14:43:03Z</time>
      </trkpt>
      <trkpt lat="48.7618" lon="2.08637">
        <ele>147.437</ele>
        <time>2013-08-07T14:43:11Z</time>
      </trkpt>
      <trkpt lat="48.76156" lon="2.08669">
        <ele>147.593</ele>
        <time>2013-08-07T14:43:18Z</time>
      </trkpt>
      <trkpt lat="48.76137" lon="2.08691">
        <ele>147.758</ele>
        <time>2013-08-07T14:43:24Z</time>
      </trkpt>
      <trkpt lat="48.76142" lon="2.08708">
        <ele>147.861</ele>
        <time>2013-08-07T14:43:28Z</time>
      </trkpt>
      <trkpt lat="48.76144" lon="2.08711">
        <ele>147.93</ele>
        <time>2013-08-07T14:43:29Z</time>
      </trkpt>
      <trkpt lat="48.76163" lon="2.0874">
        <ele>148.232</ele>
        <time>2013-08-07T14:43:36Z</time>
      </trkpt>
      <trkpt lat="48.76167" lon="2.0875">
        <ele>148.38</ele>
        <time>2013-08-07T14:43:38Z</time>
      </trkpt>
      <trkpt lat="48.76196" lon="2.08801">
        <ele>149.2</ele>
        <time>2013-08-07T14:43:49Z</time>
      </trkpt>
      <trkpt lat="48.76191" lon="2.08827">
        <ele>149.368</ele>
        <time>2013-08-07T14:43:54Z</time>
      </trkpt>
      <trkpt lat="48.76184" lon="2.08844">
        <ele>149.515</ele>
        <time>2013-08-07T14:43:58Z</time>
      </trkpt>
      <trkpt lat="48.76184" lon="2.08854">
        <ele>149.594</ele>
        <time>2013-08-07T14:44:00Z</time>
      </trkpt>
      <trkpt lat="48.76182" lon="2.08865">
        <ele>149.721</ele>
        <time>2013-08-07T14:44:02Z</time>
      </trkpt>
      <trkpt lat="48.76167" lon="2.08891">
        <ele>149.523</ele>
        <time>2013-08-07T14:44:07Z</time>
      </trkpt>
      <trkpt lat="48.76136" lon="2.08921">
        <ele>149.159</ele>
        <time>2013-08-07T14:44:14Z</time>
      </trkpt>
      <trkpt lat="48.76103" lon="2.08929">
        <ele>148.877</ele>
        <time>2013-08-07T14:44:20Z</time>
      </trkpt>
      <trkpt lat="48.76065" lon="2.08917">
        <ele>148.999</ele>
        <time>2013-08-07T14:44:27Z</time>
      </trkpt>
      <trkpt lat="48.76005" lon="2.08889">
        <ele>148.451</ele>
        <time>2013-08-07T14:44:38Z</time>
      </trkpt>
      <trkpt lat="48.75939" lon="2.08859">
        <ele>148.486</ele>
        <time>2013-08-07T14:44:50Z</time>
      </trkpt>
      <trkpt lat="48.75873" lon="2.08829">
        <ele>147.898</ele>
        <time>2013-08-07T14:45:02Z</time>
      </trkpt>
      <trkpt lat="48.75815" lon="2.08803">
        <ele>147.285</ele>
        <time>2013-08-07T14:45:13Z</time>
      </trkpt>
      <trkpt lat="48.75775" lon="2.08784">
        <ele>147.268</ele>
        <time>2013-08-07T14:45:21Z</time>
      </trkpt>
      <trkpt lat="48.7572" lon="2.08759">
        <ele>148.23</ele>
        <time>2013-08-07T14:45:32Z</time>
      </trkpt>
      <trkpt lat="48.75678" lon="2.08739">
        <ele>149.099</ele>
        <time>2013-08-07T14:45:41Z</time>
      </trkpt>
      <trkpt lat="48.75649" lon="2.08723">
        <ele>150.174</ele>
        <time>2013-08-07T14:45:48Z</time>
      </trkpt>
      <trkpt lat="48.75623" lon="2.08701">
        <ele>151.649</ele>
        <time>2013-08-07T14:45:55Z</time>
      </trkpt>
      <trkpt lat="48.75594" lon="2.0866">
        <ele>153.069</ele>
        <time>2013-08-07T14:46:05Z</time>
      </trkpt>
      <trkpt lat="48.75591" lon="2.08655">
        <ele>153.22</ele>
        <time>2013-08-07T14:46:06Z</time>
      </trkpt>
      <trkpt lat="48.75579" lon="2.08629">
        <ele>153.759</ele>
        <time>2013-08-07T14:46:11Z</time>
      </trkpt>
      <trkpt lat="48.75561" lon="2.08566">
        <ele>154.528</ele>
        <time>2013-08-07T14:46:21Z</time>
      </trkpt>
      <trkpt lat="48.75553" lon="2.08501">
        <ele>153.827</ele>
        <time>2013-08-07T14:46:29Z</time>
      </trkpt>
      <trkpt lat="48.75549" lon="2.08424">
        <ele>152.044</ele>
        <time>2013-08-07T14:46:37Z</time>
      </trkpt>
      <trkpt lat="48.75549" lon="2.08393">
        <ele>151.267</ele>
        <time>2013-08-07T14:46:40Z</time>
      </trkpt>
      <trkpt lat="48.75553" lon="2.0833">
        <ele>150.054</ele>
        <time>2013-08-07T14:46:46Z</time>
      </trkpt>
      <trkpt lat="48.75564" lon="2.08268">
        <ele>148.692</ele>
        <time>2013-08-07T14:46:52Z</time>
      </trkpt>
      <trkpt lat="48.75581" lon="2.08228">
        <ele>148.567</ele>
        <time>2013-08-07T14:46:57Z</time>
      </trkpt>
      <trkpt lat="48.75608" lon="2.08193">
        <ele>148.595</ele>
        <time>2013-08-07T14:47:03Z</time>
      </trkpt>
      <trkpt lat="48.75648" lon="2.08167">
        <ele>148.637</ele>
        <time>2013-08-07T14:47:11Z</time>
      </trkpt>
      <trkpt lat="48.75682" lon="2.08146">
        <ele>148.816</ele>
        <time>2013-08-07T14:47:18Z</time>
      </trkpt>
      <trkpt lat="48.75712" lon="2.08112">
        <ele>149.066</ele>
        <time>2013-08-07T14:47:25Z</time>
      </trkpt>
      <trkpt lat="48.75726" lon="2.08088">
        <ele>149.063</ele>
        <time>2013-08-07T14:47:29Z</time>
      </trkpt>
      <trkpt lat="48.75744" lon="2.08073">
        <ele>149.161</ele>
        <time>2013-08-07T14:47:33Z</time>
      </trkpt>
      <trkpt lat="48.75761" lon="2.08052">
        <ele>149.455</ele>
        <time>2013-08-07T14:47:37Z</time>
      </trkpt>
      <trkpt lat="48.75764" lon="2.08029">
        <ele>149.508</ele>
        <time>2013-08-07T14:47:40Z</time>
      </trkpt>
      <trkpt lat="48.75757" lon="2.08009">
        <ele>149.861</ele>
        <time>2013-08-07T14:47:43Z</time>
      </trkpt>
      <trkpt lat="48.75739" lon="2.07997">
        <ele>150.611</ele>
        <time>2013-08-07T14:47:47Z</time>
      </trkpt>
      <trkpt lat="48.75728" lon="2.07984">
        <ele>150.782</ele>
        <time>2013-08-07T14:47:50Z</time>
      </trkpt>
      <trkpt lat="48.75724" lon="2.07971">
        <ele>150.865</ele>
        <time>2013-08-07T14:47:52Z</time>
      </trkpt>
      <trkpt lat="48.75712" lon="2.07937">
        <ele>151.301</ele>
        <time>2013-08-07T14:47:57Z</time>
      </trkpt>
      <trkpt lat="48.7571" lon="2.07908">
        <ele>151.979</ele>
        <time>2013-08-07T14:48:01Z</time>
      </trkpt>
      <trkpt lat="48.75705" lon="2.07889">
        <ele>152.218</ele>
        <time>2013-08-07T14:48:04Z</time>
      </trkpt>
      <trkpt lat="48.75701" lon="2.07885">
        <ele>152.24</ele>
        <time>2013-08-07T14:48:05Z</time>
      </trkpt>
      <trkpt lat="48.75682" lon="2.0786">
        <ele>152.17</ele>
        <time>2013-08-07T14:48:10Z</time>
      </trkpt>
      <trkpt lat="48.75659" lon="2.0781">
        <ele>151.988</ele>
        <time>2013-08-07T14:48:18Z</time>
      </trkpt>
      <trkpt lat="48.75629" lon="2.07746">
        <ele>152.378</ele>
        <time>2013-08-07T14:48:28Z</time>
      </trkpt>
      <trkpt lat="48.75604" lon="2.07693">
        <ele>152.588</ele>
        <time>2013-08-07T14:48:36Z</time>
      </trkpt>
      <trkpt lat="48.7558" lon="2.07641">
        <ele>152.924</ele>
        <time>2013-08-07T14:48:44Z</time>
      </trkpt>
      <trkpt lat="48.75554" lon="2.07586">
        <ele>153.207</ele>
        <time>2013-08-07T14:48:52Z</time>
      </trkpt>
      <trkpt lat="48.7554" lon="2.07558">
        <ele>153.241</ele>
        <time>2013-08-07T14:48:56Z</time>
      </trkpt>
      <trkpt lat="48.75533" lon="2.07526">
        <ele>153.137</ele>
        <time>2013-08-07T14:49:00Z</time>
      </trkpt>
      <trkpt lat="48.75528" lon="2.07494">
        <ele>153.014</ele>
        <time>2013-08-07T14:49:04Z</time>
      </trkpt>
      <trkpt lat="48.75519" lon="2.07479">
        <ele>153.002</ele>
        <time>2013-08-07T14:49:07Z</time>
      </trkpt>
      <trkpt lat="48.75515" lon="2.07471">
        <ele>153.072</ele>
        <time>2013-08-07T14:49:09Z</time>
      </trkpt>
      <trkpt lat="48.75516" lon="2.07467">
        <ele>153.069</ele>
        <time>2013-08-07T14:49:10Z</time>
      </trkpt>
      <trkpt lat="48.75518" lon="2.07455">
        <ele>153.103</ele>
        <time>2013-08-07T14:49:12Z</time>
      </trkpt>
      <trkpt lat="48.75527" lon="2.07417">
        <ele>153.198</ele>
        <time>2013-08-07T14:49:18Z</time>
      </trkpt>
      <trkpt lat="48.75541" lon="2.07349">
        <ele>153.576</ele>
        <time>2013-08-07T14:49:28Z</time>
      </trkpt>
      <trkpt lat="48.75554" lon="2.07302">
        <ele>153.878</ele>
        <time>2013-08-07T14:49:35Z</time>
      </trkpt>
      <trkpt lat="48.75558" lon="2.07284">
        <ele>153.919</ele>
        <time>2013-08-07T14:49:38Z</time>
      </trkpt>
      <trkpt lat="48.75565" lon="2.07268">
        <ele>153.954</ele>
        <time>2013-08-07T14:49:41Z</time>
      </trkpt>
      <trkpt lat="48.75572" lon="2.07244">
        <ele>154.028</ele>
        <time>2013-08-07T14:49:45Z</time>
      </trkpt>
      <trkpt lat="48.7558" lon="2.07217">
        <ele>154.406</ele>
        <time>2013-08-07T14:49:49Z</time>
      </trkpt>
      <trkpt lat="48.75588" lon="2.0717">
        <ele>154.639</ele>
        <time>2013-08-07T14:49:56Z</time>
      </trkpt>
      <trkpt lat="48.7558" lon="2.07156">
        <ele>154.709</ele>
        <time>2013-08-07T14:50:00Z</time>
      </trkpt>
      <trkpt lat="48.75569" lon="2.07127">
        <ele>154.582</ele>
        <time>2013-08-07T14:50:06Z</time>
      </trkpt>
      <trkpt lat="48.75561" lon="2.07112">
        <ele>154.497</ele>
        <time>2013-08-07T14:50:10Z</time>
      </trkpt>
      <trkpt lat="48.75562" lon="2.071">
        <ele>154.476</ele>
        <time>2013-08-07T14:50:13Z</time>
      </trkpt>
      <trkpt lat="48.75559" lon="2.07098">
        <ele>154.435</ele>
        <time>2013-08-07T14:50:14Z</time>
      </trkpt>
      <trkpt lat="48.7553" lon="2.07075">
        <ele>154.522</ele>
        <time>2013-08-07T14:50:22Z</time>
      </trkpt>
      <trkpt lat="48.75515" lon="2.07068">
        <ele>154.506</ele>
        <time>2013-08-07T14:50:25Z</time>
      </trkpt>
      <trkpt lat="48.75462" lon="2.07029">
        <ele>154.278</ele>
        <time>2013-08-07T14:50:36Z</time>
      </trkpt>
      <trkpt lat="48.75417" lon="2.06996">
        <ele>154.279</ele>
        <time>2013-08-07T14:50:45Z</time>
      </trkpt>
      <trkpt lat="48.75348" lon="2.06944">
        <ele>154.319</ele>
        <time>2013-08-07T14:50:59Z</time>
      </trkpt>
      <trkpt lat="48.75289" lon="2.069">
        <ele>154.391</ele>
        <time>2013-08-07T14:51:11Z</time>
      </trkpt>
      <trkpt lat="48.75239" lon="2.06861">
        <ele>154.262</ele>
        <time>2013-08-07T14:51:21Z</time>
      </trkpt>
      <trkpt lat="48.75189" lon="2.06819">
        <ele>154.753</ele>
        <time>2013-08-07T14:51:31Z</time>
      </trkpt>
      <trkpt lat="48.7518" lon="2.0681">
        <ele>154.8</ele>
        <time>2013-08-07T14:51:33Z</time>
      </trkpt>
      <trkpt lat="48.75139" lon="2.06776">
        <ele>155.148</ele>
        <time>2013-08-07T14:51:42Z</time>
      </trkpt>
      <trkpt lat="48.75124" lon="2.06769">
        <ele>155.175</ele>
        <time>2013-08-07T14:51:45Z</time>
      </trkpt>
      <trkpt lat="48.75104" lon="2.06772">
        <ele>155.323</ele>
        <time>2013-08-07T14:51:49Z</time>
      </trkpt>
      <trkpt lat="48.75077" lon="2.06792">
        <ele>155.306</ele>
        <time>2013-08-07T14:51:55Z</time>
      </trkpt>
      <trkpt lat="48.75073" lon="2.06791">
        <ele>155.287</ele>
        <time>2013-08-07T14:51:56Z</time>
      </trkpt>
      <trkpt lat="48.75064" lon="2.06787">
        <ele>155.386</ele>
        <time>2013-08-07T14:51:58Z</time>
      </trkpt>
      <trkpt lat="48.75052" lon="2.06775">
        <ele>155.491</ele>
        <time>2013-08-07T14:52:02Z</time>
      </trkpt>
      <trkpt lat="48.75043" lon="2.06779">
        <ele>155.427</ele>
        <time>2013-08-07T14:52:05Z</time>
      </trkpt>
      <trkpt lat="48.75041" lon="2.06784">
        <ele>155.322</ele>
        <time>2013-08-07T14:52:06Z</time>
      </trkpt>
      <trkpt lat="48.75027" lon="2.06848">
        <ele>154.719</ele>
        <time>2013-08-07T14:52:15Z</time>
      </trkpt>
      <trkpt lat="48.75008" lon="2.06907">
        <ele>154.552</ele>
        <time>2013-08-07T14:52:23Z</time>
      </trkpt>
      <trkpt lat="48.74988" lon="2.06957">
        <ele>154.425</ele>
        <time>2013-08-07T14:52:30Z</time>
      </trkpt>
      <trkpt lat="48.74961" lon="2.07022">
        <ele>154.4</ele>
        <time>2013-08-07T14:52:39Z</time>
      </trkpt>
      <trkpt lat="48.74936" lon="2.07086">
        <ele>154.139</ele>
        <time>2013-08-07T14:52:48Z</time>
      </trkpt>
      <trkpt lat="48.7492" lon="2.07128">
        <ele>153.803</ele>
        <time>2013-08-07T14:52:55Z</time>
      </trkpt>
      <trkpt lat="48.74911" lon="2.07126">
        <ele>153.545</ele>
        <time>2013-08-07T14:52:59Z</time>
      </trkpt>
      <trkpt lat="48.74901" lon="2.07113">
        <ele>153.37</ele>
        <time>2013-08-07T14:53:04Z</time>
      </trkpt>
      <trkpt lat="48.7488" lon="2.07089">
        <ele>153.2</ele>
        <time>2013-08-07T14:53:10Z</time>
      </trkpt>
      <trkpt lat="48.74845" lon="2.0705">
        <ele>153.156</ele>
        <time>2013-08-07T14:53:19Z</time>
      </trkpt>
      <trkpt lat="48.74817" lon="2.07018">
        <ele>152.829</ele>
        <time>2013-08-07T14:53:26Z</time>
      </trkpt>
      <trkpt lat="48.74798" lon="2.06998">
        <ele>152.589</ele>
        <time>2013-08-07T14:53:31Z</time>
      </trkpt>
      <trkpt lat="48.74784" lon="2.06985">
        <ele>152.186</ele>
        <time>2013-08-07T14:53:36Z</time>
      </trkpt>
      <trkpt lat="48.74778" lon="2.06977">
        <ele>152.072</ele>
        <time>2013-08-07T14:53:39Z</time>
      </trkpt>
      <trkpt lat="48.74774" lon="2.06976">
        <ele>152.124</ele>
        <time>2013-08-07T14:53:40Z</time>
      </trkpt>
      <trkpt lat="48.74751" lon="2.06955">
        <ele>151.91</ele>
        <time>2013-08-07T14:53:47Z</time>
      </trkpt>
      <trkpt lat="48.7474" lon="2.06947">
        <ele>151.58</ele>
        <time>2013-08-07T14:53:50Z</time>
      </trkpt>
      <trkpt lat="48.74718" lon="2.06932">
        <ele>150.91</ele>
        <time>2013-08-07T14:53:55Z</time>
      </trkpt>
      <trkpt lat="48.74684" lon="2.06902">
        <ele>149.59</ele>
        <time>2013-08-07T14:54:02Z</time>
      </trkpt>
      <trkpt lat="48.74679" lon="2.06896">
        <ele>149.196</ele>
        <time>2013-08-07T14:54:03Z</time>
      </trkpt>
      <trkpt lat="48.74657" lon="2.06878">
        <ele>146.909</ele>
        <time>2013-08-07T14:54:07Z</time>
      </trkpt>
      <trkpt lat="48.74641" lon="2.0686">
        <ele>145.138</ele>
        <time>2013-08-07T14:54:10Z</time>
      </trkpt>
      <trkpt lat="48.74627" lon="2.06838">
        <ele>141.994</ele>
        <time>2013-08-07T14:54:13Z</time>
      </trkpt>
      <trkpt lat="48.74612" lon="2.06788">
        <ele>136.208</ele>
        <time>2013-08-07T14:54:18Z</time>
      </trkpt>
      <trkpt lat="48.74616" lon="2.06771">
        <ele>134.166</ele>
        <time>2013-08-07T14:54:20Z</time>
      </trkpt>
      <trkpt lat="48.74603" lon="2.06763">
        <ele>130.342</ele>
        <time>2013-08-07T14:54:24Z</time>
      </trkpt>
      <trkpt lat="48.74587" lon="2.06758">
        <ele>127.554</ele>
        <time>2013-08-07T14:54:27Z</time>
      </trkpt>
      <trkpt lat="48.7456" lon="2.06725">
        <ele>123.759</ele>
        <time>2013-08-07T14:54:31Z</time>
      </trkpt>
      <trkpt lat="48.74554" lon="2.0669">
        <ele>121.302</ele>
        <time>2013-08-07T14:54:34Z</time>
      </trkpt>
      <trkpt lat="48.74551" lon="2.0668">
        <ele>120.015</ele>
        <time>2013-08-07T14:54:36Z</time>
      </trkpt>
      <trkpt lat="48.7454" lon="2.06689">
        <ele>118.525</ele>
        <time>2013-08-07T14:54:40Z</time>
      </trkpt>
      <trkpt lat="48.74522" lon="2.06702">
        <ele>116.029</ele>
        <time>2013-08-07T14:54:45Z</time>
      </trkpt>
      <trkpt lat="48.74505" lon="2.06695">
        <ele>113.27</ele>
        <time>2013-08-07T14:54:49Z</time>
      </trkpt>
      <trkpt lat="48.74495" lon="2.06688">
        <ele>111.692</ele>
        <time>2013-08-07T14:54:51Z</time>
      </trkpt>
      <trkpt lat="48.74484" lon="2.0668">
        <ele>109.706</ele>
        <time>2013-08-07T14:54:54Z</time>
      </trkpt>
      <trkpt lat="48.74476" lon="2.06689">
        <ele>107.836</ele>
        <time>2013-08-07T14:54:58Z</time>
      </trkpt>
      <trkpt lat="48.74466" lon="2.06706">
        <ele>107.087</ele>
        <time>2013-08-07T14:55:02Z</time>
      </trkpt>
      <trkpt lat="48.74464" lon="2.06711">
        <ele>107.091</ele>
        <time>2013-08-07T14:55:03Z</time>
      </trkpt>
      <trkpt lat="48.74455" lon="2.06729">
        <ele>106.984</ele>
        <time>2013-08-07T14:55:06Z</time>
      </trkpt>
      <trkpt lat="48.74452" lon="2.06756">
        <ele>106.968</ele>
        <time>2013-08-07T14:55:10Z</time>
      </trkpt>
      <trkpt lat="48.74455" lon="2.0677">
        <ele>107.102</ele>
        <time>2013-08-07T14:55:12Z</time>
      </trkpt>
      <trkpt lat="48.74456" lon="2.06782">
        <ele>107.293</ele>
        <time>2013-08-07T14:55:14Z</time>
      </trkpt>
      <trkpt lat="48.74444" lon="2.06785">
        <ele>107.945</ele>
        <time>2013-08-07T14:55:19Z</time>
      </trkpt>
      <trkpt lat="48.7444" lon="2.06786">
        <ele>107.952</ele>
        <time>2013-08-07T14:55:20Z</time>
      </trkpt>
      <trkpt lat="48.74409" lon="2.06794">
        <ele>107.942</ele>
        <time>2013-08-07T14:55:27Z</time>
      </trkpt>
      <trkpt lat="48.74406" lon="2.06795">
        <ele>108.03</ele>
        <time>2013-08-07T14:55:28Z</time>
      </trkpt>
      <trkpt lat="48.74392" lon="2.06796">
        <ele>108.369</ele>
        <time>2013-08-07T14:55:32Z</time>
      </trkpt>
      <trkpt lat="48.74354" lon="2.06793">
        <ele>109.008</ele>
        <time>2013-08-07T14:55:40Z</time>
      </trkpt>
      <trkpt lat="48.7434" lon="2.06787">
        <ele>109.518</ele>
        <time>2013-08-07T14:55:44Z</time>
      </trkpt>
      <trkpt lat="48.74324" lon="2.0678">
        <ele>109.842</ele>
        <time>2013-08-07T14:55:50Z</time>
      </trkpt>
      <trkpt lat="48.74301" lon="2.0676">
        <ele>110.417</ele>
        <time>2013-08-07T14:55:56Z</time>
      </trkpt>
      <trkpt lat="48.74281" lon="2.06737">
        <ele>111.43</ele>
        <time>2013-08-07T14:56:02Z</time>
      </trkpt>
      <trkpt lat="48.74264" lon="2.06712">
        <ele>112.323</ele>
        <time>2013-08-07T14:56:09Z</time>
      </trkpt>
      <trkpt lat="48.7426" lon="2.06706">
        <ele>112.637</ele>
        <time>2013-08-07T14:56:11Z</time>
      </trkpt>
      <trkpt lat="48.74254" lon="2.06688">
        <ele>113.59</ele>
        <time>2013-08-07T14:56:17Z</time>
      </trkpt>
      <trkpt lat="48.74245" lon="2.06669">
        <ele>114.459</ele>
        <time>2013-08-07T14:56:22Z</time>
      </trkpt>
      <trkpt lat="48.74238" lon="2.06646">
        <ele>115.632</ele>
        <time>2013-08-07T14:56:29Z</time>
      </trkpt>
      <trkpt lat="48.74234" lon="2.06629">
        <ele>116.875</ele>
        <time>2013-08-07T14:56:35Z</time>
      </trkpt>
      <trkpt lat="48.74231" lon="2.06612">
        <ele>118.113</ele>
        <time>2013-08-07T14:56:41Z</time>
      </trkpt>
      <trkpt lat="48.74237" lon="2.06593">
        <ele>119.563</ele>
        <time>2013-08-07T14:56:49Z</time>
      </trkpt>
      <trkpt lat="48.74245" lon="2.06576">
        <ele>120.894</ele>
        <time>2013-08-07T14:56:56Z</time>
      </trkpt>
      <trkpt lat="48.74246" lon="2.06571">
        <ele>121.279</ele>
        <time>2013-08-07T14:56:58Z</time>
      </trkpt>
      <trkpt lat="48.74249" lon="2.06566">
        <ele>121.516</ele>
        <time>2013-08-07T14:57:00Z</time>
      </trkpt>
      <trkpt lat="48.74245" lon="2.06551">
        <ele>122.685</ele>
        <time>2013-08-07T14:57:06Z</time>
      </trkpt>
      <trkpt lat="48.74239" lon="2.06536">
        <ele>123.594</ele>
        <time>2013-08-07T14:57:12Z</time>
      </trkpt>
      <trkpt lat="48.74232" lon="2.06517">
        <ele>124.861</ele>
        <time>2013-08-07T14:57:20Z</time>
      </trkpt>
      <trkpt lat="48.74229" lon="2.06511">
        <ele>125.164</ele>
        <time>2013-08-07T14:57:22Z</time>
      </trkpt>
      <trkpt lat="48.74224" lon="2.06486">
        <ele>126.582</ele>
        <time>2013-08-07T14:57:30Z</time>
      </trkpt>
      <trkpt lat="48.74224" lon="2.0647">
        <ele>127.498</ele>
        <time>2013-08-07T14:57:36Z</time>
      </trkpt>
      <trkpt lat="48.74227" lon="2.06454">
        <ele>128.598</ele>
        <time>2013-08-07T14:57:42Z</time>
      </trkpt>
      <trkpt lat="48.74234" lon="2.06445">
        <ele>129.496</ele>
        <time>2013-08-07T14:57:47Z</time>
      </trkpt>
      <trkpt lat="48.74239" lon="2.06447">
        <ele>129.945</ele>
        <time>2013-08-07T14:57:53Z</time>
      </trkpt>
      <trkpt lat="48.74246" lon="2.06454">
        <ele>130.264</ele>
        <time>2013-08-07T14:57:58Z</time>
      </trkpt>
      <trkpt lat="48.74258" lon="2.06465">
        <ele>130.58</ele>
        <time>2013-08-07T14:58:04Z</time>
      </trkpt>
      <trkpt lat="48.74262" lon="2.0647">
        <ele>130.876</ele>
        <time>2013-08-07T14:58:07Z</time>
      </trkpt>
      <trkpt lat="48.74273" lon="2.06477">
        <ele>131.545</ele>
        <time>2013-08-07T14:58:13Z</time>
      </trkpt>
      <trkpt lat="48.74287" lon="2.06478">
        <ele>132.38</ele>
        <time>2013-08-07T14:58:19Z</time>
      </trkpt>
      <trkpt lat="48.743" lon="2.06467">
        <ele>133.172</ele>
        <time>2013-08-07T14:58:24Z</time>
      </trkpt>
      <trkpt lat="48.74313" lon="2.06447">
        <ele>134.669</ele>
        <time>2013-08-07T14:58:31Z</time>
      </trkpt>
      <trkpt lat="48.7432" lon="2.06428">
        <ele>136.45</ele>
        <time>2013-08-07T14:58:39Z</time>
      </trkpt>
      <trkpt lat="48.74316" lon="2.0642">
        <ele>137.205</ele>
        <time>2013-08-07T14:58:42Z</time>
      </trkpt>
      <trkpt lat="48.74299" lon="2.06403">
        <ele>138.934</ele>
        <time>2013-08-07T14:58:50Z</time>
      </trkpt>
      <trkpt lat="48.74297" lon="2.06401">
        <ele>139.179</ele>
        <time>2013-08-07T14:58:51Z</time>
      </trkpt>
      <trkpt lat="48.74297" lon="2.0639">
        <ele>139.861</ele>
        <time>2013-08-07T14:58:55Z</time>
      </trkpt>
      <trkpt lat="48.74293" lon="2.06382">
        <ele>140.149</ele>
        <time>2013-08-07T14:58:57Z</time>
      </trkpt>
      <trkpt lat="48.74299" lon="2.06374">
        <ele>141.187</ele>
        <time>2013-08-07T14:59:03Z</time>
      </trkpt>
      <trkpt lat="48.74302" lon="2.06369">
        <ele>141.566</ele>
        <time>2013-08-07T14:59:05Z</time>
      </trkpt>
      <trkpt lat="48.74315" lon="2.06356">
        <ele>142.4</ele>
        <time>2013-08-07T14:59:12Z</time>
      </trkpt>
      <trkpt lat="48.7432" lon="2.06347">
        <ele>142.839</ele>
        <time>2013-08-07T14:59:16Z</time>
      </trkpt>
      <trkpt lat="48.74326" lon="2.06319">
        <ele>144.085</ele>
        <time>2013-08-07T14:59:24Z</time>
      </trkpt>
      <trkpt lat="48.7434" lon="2.06292">
        <ele>144.538</ele>
        <time>2013-08-07T14:59:31Z</time>
      </trkpt>
      <trkpt lat="48.74349" lon="2.06263">
        <ele>144.886</ele>
        <time>2013-08-07T14:59:38Z</time>
      </trkpt>
      <trkpt lat="48.74354" lon="2.06231">
        <ele>145.644</ele>
        <time>2013-08-07T14:59:46Z</time>
      </trkpt>
      <trkpt lat="48.74365" lon="2.0621">
        <ele>145.988</ele>
        <time>2013-08-07T14:59:52Z</time>
      </trkpt>
      <trkpt lat="48.74372" lon="2.06197">
        <ele>145.675</ele>
        <time>2013-08-07T14:59:57Z</time>
      </trkpt>
      <trkpt lat="48.74382" lon="2.06171">
        <ele>145.376</ele>
        <time>2013-08-07T15:00:03Z</time>
      </trkpt>
      <trkpt lat="48.74388" lon="2.0614">
        <ele>146.047</ele>
        <time>2013-08-07T15:00:10Z</time>
      </trkpt>
      <trkpt lat="48.74389" lon="2.06101">
        <ele>146.929</ele>
        <time>2013-08-07T15:00:18Z</time>
      </trkpt>
      <trkpt lat="48.74383" lon="2.06077">
        <ele>147.379</ele>
        <time>2013-08-07T15:00:23Z</time>
      </trkpt>
      <trkpt lat="48.74371" lon="2.06061">
        <ele>147.568</ele>
        <time>2013-08-07T15:00:28Z</time>
      </trkpt>
      <trkpt lat="48.74358" lon="2.06043">
        <ele>148.016</ele>
        <time>2013-08-07T15:00:34Z</time>
      </trkpt>
      <trkpt lat="48.74347" lon="2.06026">
        <ele>148.336</ele>
        <time>2013-08-07T15:00:40Z</time>
      </trkpt>
      <trkpt lat="48.74332" lon="2.06007">
        <ele>148.693</ele>
        <time>2013-08-07T15:00:46Z</time>
      </trkpt>
      <trkpt lat="48.74315" lon="2.05977">
        <ele>148.937</ele>
        <time>2013-08-07T15:00:53Z</time>
      </trkpt>
      <trkpt lat="48.74294" lon="2.05952">
        <ele>149.303</ele>
        <time>2013-08-07T15:01:00Z</time>
      </trkpt>
      <trkpt lat="48.74277" lon="2.05931">
        <ele>149.748</ele>
        <time>2013-08-07T15:01:06Z</time>
      </trkpt>
      <trkpt lat="48.74258" lon="2.05915">
        <ele>150.141</ele>
        <time>2013-08-07T15:01:12Z</time>
      </trkpt>
      <trkpt lat="48.74241" lon="2.05917">
        <ele>150.951</ele>
        <time>2013-08-07T15:01:18Z</time>
      </trkpt>
      <trkpt lat="48.74215" lon="2.05923">
        <ele>151.904</ele>
        <time>2013-08-07T15:01:27Z</time>
      </trkpt>
      <trkpt lat="48.74188" lon="2.05931">
        <ele>152.52</ele>
        <time>2013-08-07T15:01:35Z</time>
      </trkpt>
      <trkpt lat="48.74162" lon="2.05936">
        <ele>152.683</ele>
        <time>2013-08-07T15:01:42Z</time>
      </trkpt>
      <trkpt lat="48.74136" lon="2.05943">
        <ele>152.829</ele>
        <time>2013-08-07T15:01:49Z</time>
      </trkpt>
      <trkpt lat="48.74105" lon="2.05951">
        <ele>152.867</ele>
        <time>2013-08-07T15:01:57Z</time>
      </trkpt>
      <trkpt lat="48.74082" lon="2.05964">
        <ele>152.539</ele>
        <time>2013-08-07T15:02:03Z</time>
      </trkpt>
      <trkpt lat="48.74063" lon="2.05962">
        <ele>152.692</ele>
        <time>2013-08-07T15:02:08Z</time>
      </trkpt>
      <trkpt lat="48.7405" lon="2.05974">
        <ele>152.704</ele>
        <time>2013-08-07T15:02:12Z</time>
      </trkpt>
      <trkpt lat="48.7402" lon="2.06037">
        <ele>152.019</ele>
        <time>2013-08-07T15:02:23Z</time>
      </trkpt>
      <trkpt lat="48.73979" lon="2.06114">
        <ele>152.636</ele>
        <time>2013-08-07T15:02:37Z</time>
      </trkpt>
      <trkpt lat="48.73944" lon="2.06189">
        <ele>154.244</ele>
        <time>2013-08-07T15:02:51Z</time>
      </trkpt>
      <trkpt lat="48.73927" lon="2.06249">
        <ele>154.225</ele>
        <time>2013-08-07T15:03:00Z</time>
      </trkpt>
      <trkpt lat="48.73914" lon="2.06315">
        <ele>153.682</ele>
        <time>2013-08-07T15:03:09Z</time>
      </trkpt>
      <trkpt lat="48.73901" lon="2.06379">
        <ele>153.299</ele>
        <time>2013-08-07T15:03:17Z</time>
      </trkpt>
      <trkpt lat="48.73877" lon="2.06454">
        <ele>153.103</ele>
        <time>2013-08-07T15:03:27Z</time>
      </trkpt>
      <trkpt lat="48.73851" lon="2.06531">
        <ele>153.802</ele>
        <time>2013-08-07T15:03:38Z</time>
      </trkpt>
      <trkpt lat="48.73827" lon="2.06586">
        <ele>155.16</ele>
        <time>2013-08-07T15:03:47Z</time>
      </trkpt>
      <trkpt lat="48.73808" lon="2.06619">
        <ele>155.646</ele>
        <time>2013-08-07T15:03:53Z</time>
      </trkpt>
      <trkpt lat="48.73772" lon="2.06666">
        <ele>156.629</ele>
        <time>2013-08-07T15:04:03Z</time>
      </trkpt>
      <trkpt lat="48.73726" lon="2.06706">
        <ele>157.215</ele>
        <time>2013-08-07T15:04:14Z</time>
      </trkpt>
      <trkpt lat="48.73678" lon="2.06743">
        <ele>157.098</ele>
        <time>2013-08-07T15:04:25Z</time>
      </trkpt>
      <trkpt lat="48.73643" lon="2.06783">
        <ele>157.146</ele>
        <time>2013-08-07T15:04:34Z</time>
      </trkpt>
      <trkpt lat="48.73612" lon="2.06836">
        <ele>157.028</ele>
        <time>2013-08-07T15:04:43Z</time>
      </trkpt>
      <trkpt lat="48.73586" lon="2.06901">
        <ele>156.68</ele>
        <time>2013-08-07T15:04:52Z</time>
      </trkpt>
      <trkpt lat="48.73569" lon="2.06975">
        <ele>156.63</ele>
        <time>2013-08-07T15:05:01Z</time>
      </trkpt>
      <trkpt lat="48.73552" lon="2.07051">
        <ele>156.337</ele>
        <time>2013-08-07T15:05:10Z</time>
      </trkpt>
      <trkpt lat="48.73529" lon="2.07103">
        <ele>156.62</ele>
        <time>2013-08-07T15:05:17Z</time>
      </trkpt>
      <trkpt lat="48.73501" lon="2.07135">
        <ele>156.934</ele>
        <time>2013-08-07T15:05:23Z</time>
      </trkpt>
      <trkpt lat="48.73462" lon="2.07158">
        <ele>157.284</ele>
        <time>2013-08-07T15:05:30Z</time>
      </trkpt>
      <trkpt lat="48.73403" lon="2.07178">
        <ele>157.506</ele>
        <time>2013-08-07T15:05:40Z</time>
      </trkpt>
      <trkpt lat="48.73343" lon="2.07198">
        <ele>158.183</ele>
        <time>2013-08-07T15:05:50Z</time>
      </trkpt>
      <trkpt lat="48.73274" lon="2.07232">
        <ele>159.118</ele>
        <time>2013-08-07T15:06:02Z</time>
      </trkpt>
      <trkpt lat="48.73215" lon="2.07263">
        <ele>158.672</ele>
        <time>2013-08-07T15:06:12Z</time>
      </trkpt>
      <trkpt lat="48.73171" lon="2.07286">
        <ele>158.51</ele>
        <time>2013-08-07T15:06:20Z</time>
      </trkpt>
      <trkpt lat="48.73146" lon="2.07301">
        <ele>158.287</ele>
        <time>2013-08-07T15:06:25Z</time>
      </trkpt>
      <trkpt lat="48.73115" lon="2.07334">
        <ele>157.856</ele>
        <time>2013-08-07T15:06:32Z</time>
      </trkpt>
      <trkpt lat="48.73111" lon="2.0734">
        <ele>157.793</ele>
        <time>2013-08-07T15:06:33Z</time>
      </trkpt>
      <trkpt lat="48.73082" lon="2.07406">
        <ele>157.667</ele>
        <time>2013-08-07T15:06:42Z</time>
      </trkpt>
      <trkpt lat="48.73069" lon="2.07436">
        <ele>157.718</ele>
        <time>2013-08-07T15:06:46Z</time>
      </trkpt>
      <trkpt lat="48.73051" lon="2.07481">
        <ele>157.775</ele>
        <time>2013-08-07T15:06:52Z</time>
      </trkpt>
      <trkpt lat="48.73032" lon="2.07534">
        <ele>157.733</ele>
        <time>2013-08-07T15:06:59Z</time>
      </trkpt>
      <trkpt lat="48.73027" lon="2.07549">
        <ele>157.815</ele>
        <time>2013-08-07T15:07:01Z</time>
      </trkpt>
      <trkpt lat="48.72998" lon="2.0761">
        <ele>157.89</ele>
        <time>2013-08-07T15:07:10Z</time>
      </trkpt>
      <trkpt lat="48.72974" lon="2.0768">
        <ele>157.861</ele>
        <time>2013-08-07T15:07:19Z</time>
      </trkpt>
      <trkpt lat="48.72965" lon="2.07716">
        <ele>157.602</ele>
        <time>2013-08-07T15:07:23Z</time>
      </trkpt>
      <trkpt lat="48.72944" lon="2.07786">
        <ele>157.613</ele>
        <time>2013-08-07T15:07:32Z</time>
      </trkpt>
      <trkpt lat="48.72927" lon="2.07847">
        <ele>157.66</ele>
        <time>2013-08-07T15:07:40Z</time>
      </trkpt>
      <trkpt lat="48.7292" lon="2.07868">
        <ele>157.802</ele>
        <time>2013-08-07T15:07:43Z</time>
      </trkpt>
      <trkpt lat="48.72918" lon="2.07915">
        <ele>158.046</ele>
        <time>2013-08-07T15:07:49Z</time>
      </trkpt>
      <trkpt lat="48.72914" lon="2.07971">
        <ele>158.033</ele>
        <time>2013-08-07T15:07:56Z</time>
      </trkpt>
      <trkpt lat="48.72897" lon="2.08018">
        <ele>158.391</ele>
        <time>2013-08-07T15:08:03Z</time>
      </trkpt>
      <trkpt lat="48.72874" lon="2.08063">
        <ele>158.73</ele>
        <time>2013-08-07T15:08:10Z</time>
      </trkpt>
      <trkpt lat="48.72869" lon="2.08074">
        <ele>158.71</ele>
        <time>2013-08-07T15:08:12Z</time>
      </trkpt>
      <trkpt lat="48.72863" lon="2.081">
        <ele>158.735</ele>
        <time>2013-08-07T15:08:16Z</time>
      </trkpt>
      <trkpt lat="48.72857" lon="2.08118">
        <ele>159.206</ele>
        <time>2013-08-07T15:08:20Z</time>
      </trkpt>
      <trkpt lat="48.72852" lon="2.08126">
        <ele>159.419</ele>
        <time>2013-08-07T15:08:22Z</time>
      </trkpt>
      <trkpt lat="48.72836" lon="2.08136">
        <ele>159.719</ele>
        <time>2013-08-07T15:08:27Z</time>
      </trkpt>
      <trkpt lat="48.72829" lon="2.0814">
        <ele>159.756</ele>
        <time>2013-08-07T15:08:29Z</time>
      </trkpt>
      <trkpt lat="48.72814" lon="2.08147">
        <ele>159.993</ele>
        <time>2013-08-07T15:08:33Z</time>
      </trkpt>
      <trkpt lat="48.72778" lon="2.08158">
        <ele>159.938</ele>
        <time>2013-08-07T15:08:40Z</time>
      </trkpt>
      <trkpt lat="48.72754" lon="2.08167">
        <ele>160.248</ele>
        <time>2013-08-07T15:08:45Z</time>
      </trkpt>
      <trkpt lat="48.72736" lon="2.08173">
        <ele>160.401</ele>
        <time>2013-08-07T15:08:48Z</time>
      </trkpt>
      <trkpt lat="48.72701" lon="2.08182">
        <ele>160.402</ele>
        <time>2013-08-07T15:08:53Z</time>
      </trkpt>
      <trkpt lat="48.72682" lon="2.08194">
        <ele>160.572</ele>
        <time>2013-08-07T15:08:57Z</time>
      </trkpt>
      <trkpt lat="48.72663" lon="2.08194">
        <ele>160.577</ele>
        <time>2013-08-07T15:09:00Z</time>
      </trkpt>
      <trkpt lat="48.7263" lon="2.08206">
        <ele>160.304</ele>
        <time>2013-08-07T15:09:06Z</time>
      </trkpt>
      <trkpt lat="48.72598" lon="2.08218">
        <ele>159.976</ele>
        <time>2013-08-07T15:09:12Z</time>
      </trkpt>
      <trkpt lat="48.72565" lon="2.08231">
        <ele>160.233</ele>
        <time>2013-08-07T15:09:18Z</time>
      </trkpt>
      <trkpt lat="48.72533" lon="2.08243">
        <ele>160.314</ele>
        <time>2013-08-07T15:09:24Z</time>
      </trkpt>
      <trkpt lat="48.72497" lon="2.08257">
        <ele>160.095</ele>
        <time>2013-08-07T15:09:31Z</time>
      </trkpt>
      <trkpt lat="48.72464" lon="2.08269">
        <ele>160.026</ele>
        <time>2013-08-07T15:09:38Z</time>
      </trkpt>
      <trkpt lat="48.72438" lon="2.08282">
        <ele>159.623</ele>
        <time>2013-08-07T15:09:44Z</time>
      </trkpt>
      <trkpt lat="48.72419" lon="2.08289">
        <ele>159.343</ele>
        <time>2013-08-07T15:09:48Z</time>
      </trkpt>
      <trkpt lat="48.72403" lon="2.08291">
        <ele>159.243</ele>
        <time>2013-08-07T15:09:51Z</time>
      </trkpt>
      <trkpt lat="48.72368" lon="2.08305">
        <ele>158.965</ele>
        <time>2013-08-07T15:09:58Z</time>
      </trkpt>
      <trkpt lat="48.72329" lon="2.0832">
        <ele>158.377</ele>
        <time>2013-08-07T15:10:05Z</time>
      </trkpt>
      <trkpt lat="48.72295" lon="2.08333">
        <ele>158.078</ele>
        <time>2013-08-07T15:10:11Z</time>
      </trkpt>
      <trkpt lat="48.72254" lon="2.08351">
        <ele>157.71</ele>
        <time>2013-08-07T15:10:18Z</time>
      </trkpt>
      <trkpt lat="48.72219" lon="2.08375">
        <ele>156.954</ele>
        <time>2013-08-07T15:10:25Z</time>
      </trkpt>
      <trkpt lat="48.72214" lon="2.08379">
        <ele>156.809</ele>
        <time>2013-08-07T15:10:26Z</time>
      </trkpt>
      <trkpt lat="48.72206" lon="2.08403">
        <ele>156.367</ele>
        <time>2013-08-07T15:10:31Z</time>
      </trkpt>
      <trkpt lat="48.7221" lon="2.08414">
        <ele>156.342</ele>
        <time>2013-08-07T15:10:33Z</time>
      </trkpt>
      <trkpt lat="48.72213" lon="2.08431">
        <ele>156.435</ele>
        <time>2013-08-07T15:10:36Z</time>
      </trkpt>
      <trkpt lat="48.72207" lon="2.08444">
        <ele>156.399</ele>
        <time>2013-08-07T15:10:39Z</time>
      </trkpt>
      <trkpt lat="48.72196" lon="2.08447">
        <ele>156.377</ele>
        <time>2013-08-07T15:10:43Z</time>
      </trkpt>
      <trkpt lat="48.72185" lon="2.08446">
        <ele>156.432</ele>
        <time>2013-08-07T15:10:47Z</time>
      </trkpt>
      <trkpt lat="48.72182" lon="2.08449">
        <ele>156.392</ele>
        <time>2013-08-07T15:10:48Z</time>
      </trkpt>
      <trkpt lat="48.72151" lon="2.08477">
        <ele>155.955</ele>
        <time>2013-08-07T15:10:56Z</time>
      </trkpt>
      <trkpt lat="48.72105" lon="2.08523">
        <ele>155.233</ele>
        <time>2013-08-07T15:11:06Z</time>
      </trkpt>
      <trkpt lat="48.72076" lon="2.08565">
        <ele>154.727</ele>
        <time>2013-08-07T15:11:13Z</time>
      </trkpt>
      <trkpt lat="48.72073" lon="2.08571">
        <ele>154.679</ele>
        <time>2013-08-07T15:11:14Z</time>
      </trkpt>
      <trkpt lat="48.72046" lon="2.08633">
        <ele>154.331</ele>
        <time>2013-08-07T15:11:23Z</time>
      </trkpt>
      <trkpt lat="48.72032" lon="2.08689">
        <ele>154.148</ele>
        <time>2013-08-07T15:11:30Z</time>
      </trkpt>
      <trkpt lat="48.72024" lon="2.08728">
        <ele>153.821</ele>
        <time>2013-08-07T15:11:35Z</time>
      </trkpt>
      <trkpt lat="48.7202" lon="2.08769">
        <ele>154.051</ele>
        <time>2013-08-07T15:11:41Z</time>
      </trkpt>
      <trkpt lat="48.72026" lon="2.088">
        <ele>154.505</ele>
        <time>2013-08-07T15:11:47Z</time>
      </trkpt>
      <trkpt lat="48.72025" lon="2.08806">
        <ele>154.476</ele>
        <time>2013-08-07T15:11:49Z</time>
      </trkpt>
      <trkpt lat="48.72023" lon="2.0882">
        <ele>154.443</ele>
        <time>2013-08-07T15:11:52Z</time>
      </trkpt>
      <trkpt lat="48.72008" lon="2.08836">
        <ele>154.368</ele>
        <time>2013-08-07T15:11:57Z</time>
      </trkpt>
      <trkpt lat="48.71998" lon="2.08863">
        <ele>154.326</ele>
        <time>2013-08-07T15:12:02Z</time>
      </trkpt>
      <trkpt lat="48.71985" lon="2.08912">
        <ele>153.991</ele>
        <time>2013-08-07T15:12:10Z</time>
      </trkpt>
      <trkpt lat="48.71988" lon="2.08928">
        <ele>154.001</ele>
        <time>2013-08-07T15:12:14Z</time>
      </trkpt>
      <trkpt lat="48.71995" lon="2.08931">
        <ele>154.057</ele>
        <time>2013-08-07T15:12:16Z</time>
      </trkpt>
      <trkpt lat="48.72008" lon="2.08952">
        <ele>154.279</ele>
        <time>2013-08-07T15:12:21Z</time>
      </trkpt>
      <trkpt lat="48.72021" lon="2.08983">
        <ele>154.439</ele>
        <time>2013-08-07T15:12:27Z</time>
      </trkpt>
      <trkpt lat="48.72025" lon="2.09005">
        <ele>154.353</ele>
        <time>2013-08-07T15:12:31Z</time>
      </trkpt>
      <trkpt lat="48.72005" lon="2.09024">
        <ele>154.796</ele>
        <time>2013-08-07T15:12:37Z</time>
      </trkpt>
      <trkpt lat="48.71995" lon="2.09034">
        <ele>154.932</ele>
        <time>2013-08-07T15:12:40Z</time>
      </trkpt>
      <trkpt lat="48.71996" lon="2.09052">
        <ele>154.959</ele>
        <time>2013-08-07T15:12:44Z</time>
      </trkpt>
      <trkpt lat="48.72003" lon="2.09061">
        <ele>155.02</ele>
        <time>2013-08-07T15:12:47Z</time>
      </trkpt>
      <trkpt lat="48.72009" lon="2.09064">
        <ele>154.902</ele>
        <time>2013-08-07T15:12:50Z</time>
      </trkpt>
      <trkpt lat="48.72036" lon="2.09044">
        <ele>155.12</ele>
        <time>2013-08-07T15:12:58Z</time>
      </trkpt>
      <trkpt lat="48.72039" lon="2.09043">
        <ele>155.131</ele>
        <time>2013-08-07T15:12:59Z</time>
      </trkpt>
      <trkpt lat="48.72052" lon="2.09048">
        <ele>155.377</ele>
        <time>2013-08-07T15:13:04Z</time>
      </trkpt>
      <trkpt lat="48.72058" lon="2.09046">
        <ele>155.619</ele>
        <time>2013-08-07T15:13:07Z</time>
      </trkpt>
      <trkpt lat="48.72063" lon="2.09048">
        <ele>155.805</ele>
        <time>2013-08-07T15:13:09Z</time>
      </trkpt>
      <trkpt lat="48.72085" lon="2.09055">
        <ele>156.262</ele>
        <time>2013-08-07T15:13:16Z</time>
      </trkpt>
      <trkpt lat="48.721" lon="2.09059">
        <ele>156.59</ele>
        <time>2013-08-07T15:13:21Z</time>
      </trkpt>
      <trkpt lat="48.72103" lon="2.09061">
        <ele>156.702</ele>
        <time>2013-08-07T15:13:22Z</time>
      </trkpt>
      <trkpt lat="48.72115" lon="2.09078">
        <ele>157.005</ele>
        <time>2013-08-07T15:13:28Z</time>
      </trkpt>
      <trkpt lat="48.72134" lon="2.09099">
        <ele>157.297</ele>
        <time>2013-08-07T15:13:34Z</time>
      </trkpt>
      <trkpt lat="48.72156" lon="2.09121">
        <ele>157.953</ele>
        <time>2013-08-07T15:13:40Z</time>
      </trkpt>
      <trkpt lat="48.7217" lon="2.0914">
        <ele>158.424</ele>
        <time>2013-08-07T15:13:45Z</time>
      </trkpt>
      <trkpt lat="48.7217" lon="2.09161">
        <ele>158.638</ele>
        <time>2013-08-07T15:13:49Z</time>
      </trkpt>
      <trkpt lat="48.72157" lon="2.09187">
        <ele>158.559</ele>
        <time>2013-08-07T15:13:55Z</time>
      </trkpt>
      <trkpt lat="48.72158" lon="2.09215">
        <ele>158.555</ele>
        <time>2013-08-07T15:14:00Z</time>
      </trkpt>
      <trkpt lat="48.72178" lon="2.0924">
        <ele>158.563</ele>
        <time>2013-08-07T15:14:06Z</time>
      </trkpt>
      <trkpt lat="48.72213" lon="2.09275">
        <ele>158.756</ele>
        <time>2013-08-07T15:14:15Z</time>
      </trkpt>
      <trkpt lat="48.72236" lon="2.093">
        <ele>159.01</ele>
        <time>2013-08-07T15:14:21Z</time>
      </trkpt>
      <trkpt lat="48.72273" lon="2.09336">
        <ele>158.603</ele>
        <time>2013-08-07T15:14:29Z</time>
      </trkpt>
      <trkpt lat="48.72277" lon="2.0934">
        <ele>158.505</ele>
        <time>2013-08-07T15:14:30Z</time>
      </trkpt>
      <trkpt lat="48.7228" lon="2.09372">
        <ele>157.957</ele>
        <time>2013-08-07T15:14:34Z</time>
      </trkpt>
      <trkpt lat="48.72276" lon="2.09378">
        <ele>157.709</ele>
        <time>2013-08-07T15:14:35Z</time>
      </trkpt>
      <trkpt lat="48.72246" lon="2.0945">
        <ele>157.594</ele>
        <time>2013-08-07T15:14:45Z</time>
      </trkpt>
      <trkpt lat="48.7222" lon="2.09504">
        <ele>157.705</ele>
        <time>2013-08-07T15:14:53Z</time>
      </trkpt>
      <trkpt lat="48.7222" lon="2.0953">
        <ele>157.767</ele>
        <time>2013-08-07T15:14:57Z</time>
      </trkpt>
      <trkpt lat="48.72227" lon="2.09539">
        <ele>157.644</ele>
        <time>2013-08-07T15:14:59Z</time>
      </trkpt>
      <trkpt lat="48.72257" lon="2.09566">
        <ele>157.261</ele>
        <time>2013-08-07T15:15:05Z</time>
      </trkpt>
      <trkpt lat="48.72295" lon="2.09599">
        <ele>156.987</ele>
        <time>2013-08-07T15:15:12Z</time>
      </trkpt>
      <trkpt lat="48.72325" lon="2.09632">
        <ele>156.336</ele>
        <time>2013-08-07T15:15:18Z</time>
      </trkpt>
      <trkpt lat="48.72357" lon="2.09663">
        <ele>155.53</ele>
        <time>2013-08-07T15:15:24Z</time>
      </trkpt>
      <trkpt lat="48.72368" lon="2.09675">
        <ele>155.283</ele>
        <time>2013-08-07T15:15:26Z</time>
      </trkpt>
      <trkpt lat="48.72384" lon="2.0969">
        <ele>154.967</ele>
        <time>2013-08-07T15:15:29Z</time>
      </trkpt>
      <trkpt lat="48.72397" lon="2.09723">
        <ele>154.498</ele>
        <time>2013-08-07T15:15:33Z</time>
      </trkpt>
      <trkpt lat="48.72393" lon="2.09732">
        <ele>154.378</ele>
        <time>2013-08-07T15:15:34Z</time>
      </trkpt>
      <trkpt lat="48.72387" lon="2.09759">
        <ele>154.386</ele>
        <time>2013-08-07T15:15:37Z</time>
      </trkpt>
      <trkpt lat="48.72377" lon="2.09811">
        <ele>154.939</ele>
        <time>2013-08-07T15:15:43Z</time>
      </trkpt>
      <trkpt lat="48.7237" lon="2.09863">
        <ele>155.687</ele>
        <time>2013-08-07T15:15:50Z</time>
      </trkpt>
      <trkpt lat="48.72368" lon="2.09876">
        <ele>155.814</ele>
        <time>2013-08-07T15:15:52Z</time>
      </trkpt>
      <trkpt lat="48.72367" lon="2.09904">
        <ele>155.756</ele>
        <time>2013-08-07T15:15:58Z</time>
      </trkpt>
      <trkpt lat="48.72368" lon="2.09903">
        <ele>155.819</ele>
        <time>2013-08-07T15:16:00Z</time>
      </trkpt>
    </trkseg>
  </trk>
</gpx>